<?xml version="1.0" encoding="UTF-8" standalone="no" ?><gpx xmlns="http://www.topografix.com/GPX/1/1" xmlns:gpxx="http://www.garmin.com/xmlschemas/GpxExtensions/v3" xmlns:wptx1="http://www.garmin.com/xmlschemas/WaypointExtension/v1" xmlns:gpxtpx="http://www.garmin.com/xmlschemas/TrackPointExtension/v1" creator="GuideVTT.com" version="1.1" xmlns:xsi="http://www.w3.org/2001/XMLSchema-instance" xsi:schemaLocation="http://www.topografix.com/GPX/1/1 http://www.topografix.com/GPX/1/1/gpx.xsd http://www.garmin.com/xmlschemas/GpxExtensions/v3 http://www8.garmin.com/xmlschemas/GpxExtensionsv3.xsd http://www.garmin.com/xmlschemas/WaypointExtension/v1 http://www8.garmin.com/xmlschemas/WaypointExtensionv1.xsd http://www.garmin.com/xmlschemas/TrackPointExtension/v1 http://www.garmin.com/xmlschemas/TrackPointExtensionv1.xsd">
<metadata><link href="http://www.garmin.com"><text>Garmin International</text></link><time>2013-06-22T15:13:50Z</time></metadata>
<trk><name>gr221.gpx</name><extensions><gpxx:TrackExtension><gpxx:DisplayColor>Cyan</gpxx:DisplayColor></gpxx:TrackExtension></extensions><trkseg>
<trkpt lat="49.07298376" lon="-1.21442453"><ele></ele><time>2014-7-4T22:36:41Z</time></trkpt>
<trkpt lat="49.07298518" lon="-1.21442109"><ele></ele><time>2014-7-4T22:36:44Z</time></trkpt>
<trkpt lat="49.07298460" lon="-1.21442235"><ele></ele><time>2014-7-4T22:36:47Z</time></trkpt>
<trkpt lat="49.07298595" lon="-1.21442582"><ele></ele><time>2014-7-4T22:36:50Z</time></trkpt>
<trkpt lat="49.07299407" lon="-1.21444666"><ele></ele><time>2014-7-4T22:36:53Z</time></trkpt>
<trkpt lat="49.07299256" lon="-1.21445957"><ele></ele><time>2014-7-4T22:36:56Z</time></trkpt>
<trkpt lat="49.07298543" lon="-1.21449410"><ele></ele><time>2014-7-4T22:36:59Z</time></trkpt>
<trkpt lat="49.07290748" lon="-1.21455546"><ele></ele><time>2014-7-4T22:37:2Z</time></trkpt>
<trkpt lat="49.07286080" lon="-1.21453953"><ele></ele><time>2014-7-4T22:37:5Z</time></trkpt>
<trkpt lat="49.07268167" lon="-1.21450793"><ele></ele><time>2014-7-4T22:37:8Z</time></trkpt>
<trkpt lat="49.07244623" lon="-1.21453525"><ele></ele><time>2014-7-4T22:37:11Z</time></trkpt>
<trkpt lat="49.07239426" lon="-1.21451028"><ele></ele><time>2014-7-4T22:37:14Z</time></trkpt>
<trkpt lat="49.07239133" lon="-1.21450793"><ele></ele><time>2014-7-4T22:37:17Z</time></trkpt>
<trkpt lat="49.07239246" lon="-1.21450933"><ele></ele><time>2014-7-4T22:37:20Z</time></trkpt>
<trkpt lat="49.07239585" lon="-1.21451355"><ele></ele><time>2014-7-4T22:37:23Z</time></trkpt>
<trkpt lat="49.07241806" lon="-1.21452042"><ele></ele><time>2014-7-4T22:37:26Z</time></trkpt>
<trkpt lat="49.07241664" lon="-1.21451871"><ele></ele><time>2014-7-4T22:37:29Z</time></trkpt>
<trkpt lat="49.07222453" lon="-1.21428765"><ele></ele><time>2014-7-4T22:37:32Z</time></trkpt>
<trkpt lat="49.07210374" lon="-1.21410074"><ele></ele><time>2014-7-4T22:37:35Z</time></trkpt>
<trkpt lat="49.07201255" lon="-1.21394450"><ele></ele><time>2014-7-4T22:37:38Z</time></trkpt>
<trkpt lat="49.07195144" lon="-1.21384584"><ele></ele><time>2014-7-4T22:37:41Z</time></trkpt>
<trkpt lat="49.07190165" lon="-1.21376923"><ele></ele><time>2014-7-4T22:37:44Z</time></trkpt>
<trkpt lat="49.07181499" lon="-1.21362288"><ele></ele><time>2014-7-4T22:37:47Z</time></trkpt>
<trkpt lat="49.07168423" lon="-1.21346187"><ele></ele><time>2014-7-4T22:37:50Z</time></trkpt>
<trkpt lat="49.07147057" lon="-1.21326682"><ele></ele><time>2014-7-4T22:37:53Z</time></trkpt>
<trkpt lat="49.07140503" lon="-1.21321594"><ele></ele><time>2014-7-4T22:37:56Z</time></trkpt>
<trkpt lat="49.07137167" lon="-1.21319172"><ele></ele><time>2014-7-4T22:37:59Z</time></trkpt>
<trkpt lat="49.07110848" lon="-1.21292048"><ele></ele><time>2014-7-4T22:38:2Z</time></trkpt>
<trkpt lat="49.07087345" lon="-1.21255897"><ele></ele><time>2014-7-4T22:38:5Z</time></trkpt>
<trkpt lat="49.07069575" lon="-1.21225965"><ele></ele><time>2014-7-4T22:38:8Z</time></trkpt>
<trkpt lat="49.07066465" lon="-1.21220785"><ele></ele><time>2014-7-4T22:38:11Z</time></trkpt>
<trkpt lat="49.07045326" lon="-1.21184735"><ele></ele><time>2014-7-4T22:38:14Z</time></trkpt>
<trkpt lat="49.07032980" lon="-1.21161710"><ele></ele><time>2014-7-4T22:38:17Z</time></trkpt>
<trkpt lat="49.07021765" lon="-1.21141065"><ele></ele><time>2014-7-4T22:38:20Z</time></trkpt>
<trkpt lat="49.07015512" lon="-1.21131543"><ele></ele><time>2014-7-4T22:38:23Z</time></trkpt>
<trkpt lat="49.06995236" lon="-1.21096306"><ele></ele><time>2014-7-4T22:38:26Z</time></trkpt>
<trkpt lat="49.06992579" lon="-1.21072283"><ele></ele><time>2014-7-4T22:38:29Z</time></trkpt>
<trkpt lat="49.06998874" lon="-1.21061915"><ele></ele><time>2014-7-4T22:38:32Z</time></trkpt>
<trkpt lat="49.07033868" lon="-1.21025965"><ele></ele><time>2014-7-4T22:38:35Z</time></trkpt>
<trkpt lat="49.07063917" lon="-1.20993619"><ele></ele><time>2014-7-4T22:38:38Z</time></trkpt>
<trkpt lat="49.07098149" lon="-1.20954459"><ele></ele><time>2014-7-4T22:38:41Z</time></trkpt>
<trkpt lat="49.07139589" lon="-1.20908425"><ele></ele><time>2014-7-4T22:38:44Z</time></trkpt>
<trkpt lat="49.07190685" lon="-1.20859567"><ele></ele><time>2014-7-4T22:38:47Z</time></trkpt>
<trkpt lat="49.07234254" lon="-1.20819619"><ele></ele><time>2014-7-4T22:38:50Z</time></trkpt>
<trkpt lat="49.07281780" lon="-1.20759848"><ele></ele><time>2014-7-4T22:38:53Z</time></trkpt>
<trkpt lat="49.07327428" lon="-1.20699246"><ele></ele><time>2014-7-4T22:38:56Z</time></trkpt>
<trkpt lat="49.07337704" lon="-1.20663187"><ele></ele><time>2014-7-4T22:38:59Z</time></trkpt>
<trkpt lat="49.07343244" lon="-1.20582746"><ele></ele><time>2014-7-4T22:39:2Z</time></trkpt>
<trkpt lat="49.07350084" lon="-1.20487193"><ele></ele><time>2014-7-4T22:39:5Z</time></trkpt>
<trkpt lat="49.07348743" lon="-1.20423096"><ele></ele><time>2014-7-4T22:39:8Z</time></trkpt>
<trkpt lat="49.07346027" lon="-1.20396132"><ele></ele><time>2014-7-4T22:39:11Z</time></trkpt>
<trkpt lat="49.07353252" lon="-1.20364289"><ele></ele><time>2014-7-4T22:39:14Z</time></trkpt>
<trkpt lat="49.07368977" lon="-1.20358078"><ele></ele><time>2014-7-4T22:39:17Z</time></trkpt>
<trkpt lat="49.07393033" lon="-1.20344357"><ele></ele><time>2014-7-4T22:39:20Z</time></trkpt>
<trkpt lat="49.07395849" lon="-1.20328582"><ele></ele><time>2014-7-4T22:39:23Z</time></trkpt>
<trkpt lat="49.07397022" lon="-1.20312078"><ele></ele><time>2014-7-4T22:39:26Z</time></trkpt>
<trkpt lat="49.07401549" lon="-1.20272683"><ele></ele><time>2014-7-4T22:39:29Z</time></trkpt>
<trkpt lat="49.07398389" lon="-1.20266388"><ele></ele><time>2014-7-4T22:39:32Z</time></trkpt>
<trkpt lat="49.07388993" lon="-1.20230287"><ele></ele><time>2014-7-4T22:39:35Z</time></trkpt>
<trkpt lat="49.07393963" lon="-1.20145898"><ele></ele><time>2014-7-4T22:39:38Z</time></trkpt>
<trkpt lat="49.07396000" lon="-1.20079463"><ele></ele><time>2014-7-4T22:39:41Z</time></trkpt>
<trkpt lat="49.07397534" lon="-1.19998922"><ele></ele><time>2014-7-4T22:39:44Z</time></trkpt>
<trkpt lat="49.07401968" lon="-1.19886093"><ele></ele><time>2014-7-4T22:39:47Z</time></trkpt>
<trkpt lat="49.07405195" lon="-1.19804076"><ele></ele><time>2014-7-4T22:39:50Z</time></trkpt>
<trkpt lat="49.07408606" lon="-1.19704155"><ele></ele><time>2014-7-4T22:39:53Z</time></trkpt>
<trkpt lat="49.07413099" lon="-1.19599658"><ele></ele><time>2014-7-4T22:39:56Z</time></trkpt>
<trkpt lat="49.07416686" lon="-1.19508220"><ele></ele><time>2014-7-4T22:39:59Z</time></trkpt>
<trkpt lat="49.07418975" lon="-1.19442296"><ele></ele><time>2014-7-4T22:40:2Z</time></trkpt>
<trkpt lat="49.07424163" lon="-1.19365283"><ele></ele><time>2014-7-4T22:40:5Z</time></trkpt>
<trkpt lat="49.07428128" lon="-1.19320968"><ele></ele><time>2014-7-4T22:40:8Z</time></trkpt>
<trkpt lat="49.07438429" lon="-1.19305646"><ele></ele><time>2014-7-4T22:40:11Z</time></trkpt>
<trkpt lat="49.07442293" lon="-1.19306417"><ele></ele><time>2014-7-4T22:40:14Z</time></trkpt>
<trkpt lat="49.07456886" lon="-1.19302419"><ele></ele><time>2014-7-4T22:40:17Z</time></trkpt>
<trkpt lat="49.07459627" lon="-1.19295596"><ele></ele><time>2014-7-4T22:40:20Z</time></trkpt>
<trkpt lat="49.07459828" lon="-1.19294775"><ele></ele><time>2014-7-4T22:40:23Z</time></trkpt>
<trkpt lat="49.07464455" lon="-1.19281607"><ele></ele><time>2014-7-4T22:40:26Z</time></trkpt>
<trkpt lat="49.07467456" lon="-1.19273988"><ele></ele><time>2014-7-4T22:40:29Z</time></trkpt>
<trkpt lat="49.07471814" lon="-1.19263343"><ele></ele><time>2014-7-4T22:40:32Z</time></trkpt>
<trkpt lat="49.07481696" lon="-1.19238616"><ele></ele><time>2014-7-4T22:40:35Z</time></trkpt>
<trkpt lat="49.07493138" lon="-1.19215717"><ele></ele><time>2014-7-4T22:40:38Z</time></trkpt>
<trkpt lat="49.07503540" lon="-1.19211618"><ele></ele><time>2014-7-4T22:40:41Z</time></trkpt>
<trkpt lat="49.07516515" lon="-1.19226186"><ele></ele><time>2014-7-4T22:40:44Z</time></trkpt>
<trkpt lat="49.07532197" lon="-1.19243436"><ele></ele><time>2014-7-4T22:40:47Z</time></trkpt>
<trkpt lat="49.07546028" lon="-1.19253008"><ele></ele><time>2014-7-4T22:40:50Z</time></trkpt>
<trkpt lat="49.07564132" lon="-1.19255858"><ele></ele><time>2014-7-4T22:40:53Z</time></trkpt>
<trkpt lat="49.07580620" lon="-1.19255656"><ele></ele><time>2014-7-4T22:40:56Z</time></trkpt>
<trkpt lat="49.07594534" lon="-1.19256645"><ele></ele><time>2014-7-4T22:40:59Z</time></trkpt>
<trkpt lat="49.07605455" lon="-1.19259696"><ele></ele><time>2014-7-4T22:41:2Z</time></trkpt>
<trkpt lat="49.07624725" lon="-1.19268707"><ele></ele><time>2014-7-4T22:41:5Z</time></trkpt>
<trkpt lat="49.07641280" lon="-1.19279603"><ele></ele><time>2014-7-4T22:41:8Z</time></trkpt>
<trkpt lat="49.07646786" lon="-1.19280106"><ele></ele><time>2014-7-4T22:41:11Z</time></trkpt>
<trkpt lat="49.07662679" lon="-1.19262789"><ele></ele><time>2014-7-4T22:41:14Z</time></trkpt>
<trkpt lat="49.07675612" lon="-1.19245338"><ele></ele><time>2014-7-4T22:41:17Z</time></trkpt>
<trkpt lat="49.07684924" lon="-1.19236889"><ele></ele><time>2014-7-4T22:41:20Z</time></trkpt>
<trkpt lat="49.07697505" lon="-1.19239815"><ele></ele><time>2014-7-4T22:41:23Z</time></trkpt>
<trkpt lat="49.07712542" lon="-1.19240100"><ele></ele><time>2014-7-4T22:41:26Z</time></trkpt>
<trkpt lat="49.07728384" lon="-1.19239504"><ele></ele><time>2014-7-4T22:41:29Z</time></trkpt>
<trkpt lat="49.07740345" lon="-1.19239253"><ele></ele><time>2014-7-4T22:41:32Z</time></trkpt>
<trkpt lat="49.07756950" lon="-1.19238356"><ele></ele><time>2014-7-4T22:41:35Z</time></trkpt>
<trkpt lat="49.07771065" lon="-1.19237132"><ele></ele><time>2014-7-4T22:41:38Z</time></trkpt>
<trkpt lat="49.07789002" lon="-1.19231064"><ele></ele><time>2014-7-4T22:41:41Z</time></trkpt>
<trkpt lat="49.07809068" lon="-1.19225808"><ele></ele><time>2014-7-4T22:41:44Z</time></trkpt>
<trkpt lat="49.07827458" lon="-1.19222883"><ele></ele><time>2014-7-4T22:41:47Z</time></trkpt>
<trkpt lat="49.07850718" lon="-1.19213546"><ele></ele><time>2014-7-4T22:41:50Z</time></trkpt>
<trkpt lat="49.07876073" lon="-1.19205767"><ele></ele><time>2014-7-4T22:41:53Z</time></trkpt>
<trkpt lat="49.07885059" lon="-1.19187604"><ele></ele><time>2014-7-4T22:41:56Z</time></trkpt>
<trkpt lat="49.07886568" lon="-1.19132627"><ele></ele><time>2014-7-4T22:41:59Z</time></trkpt>
<trkpt lat="49.07891840" lon="-1.19073685"><ele></ele><time>2014-7-4T22:42:2Z</time></trkpt>
<trkpt lat="49.07891546" lon="-1.19035782"><ele></ele><time>2014-7-4T22:42:5Z</time></trkpt>
<trkpt lat="49.07880776" lon="-1.18989506"><ele></ele><time>2014-7-4T22:42:8Z</time></trkpt>
<trkpt lat="49.07867834" lon="-1.18934437"><ele></ele><time>2014-7-4T22:42:11Z</time></trkpt>
<trkpt lat="49.07852076" lon="-1.18872922"><ele></ele><time>2014-7-4T22:42:14Z</time></trkpt>
<trkpt lat="49.07831473" lon="-1.18835748"><ele></ele><time>2014-7-4T22:42:17Z</time></trkpt>
<trkpt lat="49.07826746" lon="-1.18827928"><ele></ele><time>2014-7-4T22:42:20Z</time></trkpt>
<trkpt lat="49.07809504" lon="-1.18778139"><ele></ele><time>2014-7-4T22:42:23Z</time></trkpt>
<trkpt lat="49.07808842" lon="-1.18743472"><ele></ele><time>2014-7-4T22:42:26Z</time></trkpt>
<trkpt lat="49.07816654" lon="-1.18723087"><ele></ele><time>2014-7-4T22:42:29Z</time></trkpt>
<trkpt lat="49.07827634" lon="-1.18678043"><ele></ele><time>2014-7-4T22:42:32Z</time></trkpt>
<trkpt lat="49.07821583" lon="-1.18663257"><ele></ele><time>2014-7-4T22:42:35Z</time></trkpt>
<trkpt lat="49.07823217" lon="-1.18632529"><ele></ele><time>2014-7-4T22:42:38Z</time></trkpt>
<trkpt lat="49.07828699" lon="-1.18628237"><ele></ele><time>2014-7-4T22:42:41Z</time></trkpt>
<trkpt lat="49.07868496" lon="-1.18591835"><ele></ele><time>2014-7-4T22:42:44Z</time></trkpt>
<trkpt lat="49.07899098" lon="-1.18549992"><ele></ele><time>2014-7-4T22:42:47Z</time></trkpt>
<trkpt lat="49.07917438" lon="-1.18524738"><ele></ele><time>2014-7-4T22:42:50Z</time></trkpt>
<trkpt lat="49.07923398" lon="-1.18515182"><ele></ele><time>2014-7-4T22:42:53Z</time></trkpt>
<trkpt lat="49.07932056" lon="-1.18484798"><ele></ele><time>2014-7-4T22:42:56Z</time></trkpt>
<trkpt lat="49.07931319" lon="-1.18428539"><ele></ele><time>2014-7-4T22:42:59Z</time></trkpt>
<trkpt lat="49.07931704" lon="-1.18386696"><ele></ele><time>2014-7-4T22:43:2Z</time></trkpt>
<trkpt lat="49.07935325" lon="-1.18330093"><ele></ele><time>2014-7-4T22:43:5Z</time></trkpt>
<trkpt lat="49.07935962" lon="-1.18321854"><ele></ele><time>2014-7-4T22:43:8Z</time></trkpt>
<trkpt lat="49.07938024" lon="-1.18304864"><ele></ele><time>2014-7-4T22:43:11Z</time></trkpt>
<trkpt lat="49.07939876" lon="-1.18287748"><ele></ele><time>2014-7-4T22:43:14Z</time></trkpt>
<trkpt lat="49.07947219" lon="-1.18242435"><ele></ele><time>2014-7-4T22:43:17Z</time></trkpt>
<trkpt lat="49.07948719" lon="-1.18236266"><ele></ele><time>2014-7-4T22:43:20Z</time></trkpt>
<trkpt lat="49.07954486" lon="-1.18220005"><ele></ele><time>2014-7-4T22:43:23Z</time></trkpt>
<trkpt lat="49.07968434" lon="-1.18208229"><ele></ele><time>2014-7-4T22:43:26Z</time></trkpt>
<trkpt lat="49.07982037" lon="-1.18203954"><ele></ele><time>2014-7-4T22:43:29Z</time></trkpt>
<trkpt lat="49.07994929" lon="-1.18190769"><ele></ele><time>2014-7-4T22:43:32Z</time></trkpt>
<trkpt lat="49.07999522" lon="-1.18175933"><ele></ele><time>2014-7-4T22:43:35Z</time></trkpt>
<trkpt lat="49.08004677" lon="-1.18155766"><ele></ele><time>2014-7-4T22:43:38Z</time></trkpt>
<trkpt lat="49.08007368" lon="-1.18145079"><ele></ele><time>2014-7-4T22:43:41Z</time></trkpt>
<trkpt lat="49.08009597" lon="-1.18133286"><ele></ele><time>2014-7-4T22:43:44Z</time></trkpt>
<trkpt lat="49.08012187" lon="-1.18121845"><ele></ele><time>2014-7-4T22:43:47Z</time></trkpt>
<trkpt lat="49.08014744" lon="-1.18112792"><ele></ele><time>2014-7-4T22:43:50Z</time></trkpt>
<trkpt lat="49.08018834" lon="-1.18096699"><ele></ele><time>2014-7-4T22:43:53Z</time></trkpt>
<trkpt lat="49.08026805" lon="-1.18068033"><ele></ele><time>2014-7-4T22:43:56Z</time></trkpt>
<trkpt lat="49.08033486" lon="-1.18040557"><ele></ele><time>2014-7-4T22:43:59Z</time></trkpt>
<trkpt lat="49.08038724" lon="-1.18020868"><ele></ele><time>2014-7-4T22:44:2Z</time></trkpt>
<trkpt lat="49.08046167" lon="-1.17997717"><ele></ele><time>2014-7-4T22:44:5Z</time></trkpt>
<trkpt lat="49.08053242" lon="-1.17968732"><ele></ele><time>2014-7-4T22:44:8Z</time></trkpt>
<trkpt lat="49.08058690" lon="-1.17946328"><ele></ele><time>2014-7-4T22:44:11Z</time></trkpt>
<trkpt lat="49.08063987" lon="-1.17924518"><ele></ele><time>2014-7-4T22:44:14Z</time></trkpt>
<trkpt lat="49.08072813" lon="-1.17894234"><ele></ele><time>2014-7-4T22:44:17Z</time></trkpt>
<trkpt lat="49.08080089" lon="-1.17854487"><ele></ele><time>2014-7-4T22:44:20Z</time></trkpt>
<trkpt lat="49.08087356" lon="-1.17815897"><ele></ele><time>2014-7-4T22:44:23Z</time></trkpt>
<trkpt lat="49.08100717" lon="-1.17760518"><ele></ele><time>2014-7-4T22:44:26Z</time></trkpt>
<trkpt lat="49.08105603" lon="-1.17733075"><ele></ele><time>2014-7-4T22:44:29Z</time></trkpt>
<trkpt lat="49.08102569" lon="-1.17707586"><ele></ele><time>2014-7-4T22:44:32Z</time></trkpt>
<trkpt lat="49.08096786" lon="-1.17707259"><ele></ele><time>2014-7-4T22:44:35Z</time></trkpt>
<trkpt lat="49.08065052" lon="-1.17708424"><ele></ele><time>2014-7-4T22:44:38Z</time></trkpt>
<trkpt lat="49.08027744" lon="-1.17695558"><ele></ele><time>2014-7-4T22:44:41Z</time></trkpt>
<trkpt lat="49.07987662" lon="-1.17676447"><ele></ele><time>2014-7-4T22:44:44Z</time></trkpt>
<trkpt lat="49.07960638" lon="-1.17663212"><ele></ele><time>2014-7-4T22:44:47Z</time></trkpt>
<trkpt lat="49.07944277" lon="-1.17655115"><ele></ele><time>2014-7-4T22:44:50Z</time></trkpt>
<trkpt lat="49.07914479" lon="-1.17641738"><ele></ele><time>2014-7-4T22:44:53Z</time></trkpt>
<trkpt lat="49.07884640" lon="-1.17627027"><ele></ele><time>2014-7-4T22:44:56Z</time></trkpt>
<trkpt lat="49.07864364" lon="-1.17617514"><ele></ele><time>2014-7-4T22:44:59Z</time></trkpt>
<trkpt lat="49.07845446" lon="-1.17608319"><ele></ele><time>2014-7-4T22:45:2Z</time></trkpt>
<trkpt lat="49.07841349" lon="-1.17609801"><ele></ele><time>2014-7-4T22:45:5Z</time></trkpt>
<trkpt lat="49.07839813" lon="-1.17610356"><ele></ele><time>2014-7-4T22:45:8Z</time></trkpt>
<trkpt lat="49.07838789" lon="-1.17610727"><ele></ele><time>2014-7-4T22:45:11Z</time></trkpt>
<trkpt lat="49.07836228" lon="-1.17611653"><ele></ele><time>2014-7-4T22:45:14Z</time></trkpt>
<trkpt lat="49.07834692" lon="-1.17612208"><ele></ele><time>2014-7-4T22:45:17Z</time></trkpt>
<trkpt lat="49.07824500" lon="-1.17627648"><ele></ele><time>2014-7-4T22:45:20Z</time></trkpt>
<trkpt lat="49.07819387" lon="-1.17653766"><ele></ele><time>2014-7-4T22:45:23Z</time></trkpt>
<trkpt lat="49.07819185" lon="-1.17662433"><ele></ele><time>2014-7-4T22:45:26Z</time></trkpt>
<trkpt lat="49.07819303" lon="-1.17673648"><ele></ele><time>2014-7-4T22:45:29Z</time></trkpt>
<trkpt lat="49.07818230" lon="-1.17679054"><ele></ele><time>2014-7-4T22:45:32Z</time></trkpt>
<trkpt lat="49.07817258" lon="-1.17682516"><ele></ele><time>2014-7-4T22:45:35Z</time></trkpt>
<trkpt lat="49.07814693" lon="-1.17696119"><ele></ele><time>2014-7-4T22:45:38Z</time></trkpt>
<trkpt lat="49.07814662" lon="-1.17696064"><ele></ele><time>2014-7-4T22:45:41Z</time></trkpt>
<trkpt lat="49.07814483" lon="-1.17695747"><ele></ele><time>2014-7-4T22:45:44Z</time></trkpt>
<trkpt lat="49.07814467" lon="-1.17695719"><ele></ele><time>2014-7-4T22:45:47Z</time></trkpt>
<trkpt lat="49.07814436" lon="-1.17695664"><ele></ele><time>2014-7-4T22:45:50Z</time></trkpt>
<trkpt lat="49.07814413" lon="-1.17695622"><ele></ele><time>2014-7-4T22:45:53Z</time></trkpt>
<trkpt lat="49.07814397" lon="-1.17695595"><ele></ele><time>2014-7-4T22:45:56Z</time></trkpt>
<trkpt lat="49.07814382" lon="-1.17695567"><ele></ele><time>2014-7-4T22:45:59Z</time></trkpt>
<trkpt lat="49.07813294" lon="-1.17693633"><ele></ele><time>2014-7-4T22:46:2Z</time></trkpt>
<trkpt lat="49.07813263" lon="-1.17693578"><ele></ele><time>2014-7-4T22:46:5Z</time></trkpt>
<trkpt lat="49.07812812" lon="-1.17692777"><ele></ele><time>2014-7-4T22:46:8Z</time></trkpt>
<trkpt lat="49.07812773" lon="-1.17692708"><ele></ele><time>2014-7-4T22:46:11Z</time></trkpt>
<trkpt lat="49.07816553" lon="-1.17667965"><ele></ele><time>2014-7-4T22:46:14Z</time></trkpt>
<trkpt lat="49.07820334" lon="-1.17651016"><ele></ele><time>2014-7-4T22:46:17Z</time></trkpt>
<trkpt lat="49.07820904" lon="-1.17631428"><ele></ele><time>2014-7-4T22:46:20Z</time></trkpt>
<trkpt lat="49.07826453" lon="-1.17612795"><ele></ele><time>2014-7-4T22:46:23Z</time></trkpt>
<trkpt lat="49.07829445" lon="-1.17603759"><ele></ele><time>2014-7-4T22:46:26Z</time></trkpt>
<trkpt lat="49.07829735" lon="-1.17602920"><ele></ele><time>2014-7-4T22:46:29Z</time></trkpt>
<trkpt lat="49.07830413" lon="-1.17600963"><ele></ele><time>2014-7-4T22:46:32Z</time></trkpt>
<trkpt lat="49.07830509" lon="-1.17600683"><ele></ele><time>2014-7-4T22:46:35Z</time></trkpt>
<trkpt lat="49.07833074" lon="-1.17598269"><ele></ele><time>2014-7-4T22:46:38Z</time></trkpt>
<trkpt lat="49.07840836" lon="-1.17599468"><ele></ele><time>2014-7-4T22:46:41Z</time></trkpt>
<trkpt lat="49.07856753" lon="-1.17605947"><ele></ele><time>2014-7-4T22:46:44Z</time></trkpt>
<trkpt lat="49.07877708" lon="-1.17616282"><ele></ele><time>2014-7-4T22:46:47Z</time></trkpt>
<trkpt lat="49.07909123" lon="-1.17632987"><ele></ele><time>2014-7-4T22:46:50Z</time></trkpt>
<trkpt lat="49.07942684" lon="-1.17649809"><ele></ele><time>2014-7-4T22:46:53Z</time></trkpt>
<trkpt lat="49.07995742" lon="-1.17675659"><ele></ele><time>2014-7-4T22:46:56Z</time></trkpt>
<trkpt lat="49.08053669" lon="-1.17703663"><ele></ele><time>2014-7-4T22:46:59Z</time></trkpt>
<trkpt lat="49.08076460" lon="-1.17708860"><ele></ele><time>2014-7-4T22:47:2Z</time></trkpt>
<trkpt lat="49.08097339" lon="-1.17707854"><ele></ele><time>2014-7-4T22:47:5Z</time></trkpt>
<trkpt lat="49.08104438" lon="-1.17706798"><ele></ele><time>2014-7-4T22:47:8Z</time></trkpt>
<trkpt lat="49.08117388" lon="-1.17700973"><ele></ele><time>2014-7-4T22:47:11Z</time></trkpt>
<trkpt lat="49.08129374" lon="-1.17695248"><ele></ele><time>2014-7-4T22:47:14Z</time></trkpt>
<trkpt lat="49.08132375" lon="-1.17694133"><ele></ele><time>2014-7-4T22:47:17Z</time></trkpt>
<trkpt lat="49.08138385" lon="-1.17692725"><ele></ele><time>2014-7-4T22:47:20Z</time></trkpt>
<trkpt lat="49.08156733" lon="-1.17694074"><ele></ele><time>2014-7-4T22:47:23Z</time></trkpt>
<trkpt lat="49.08172944" lon="-1.17694736"><ele></ele><time>2014-7-4T22:47:26Z</time></trkpt>
<trkpt lat="49.08195063" lon="-1.17685575"><ele></ele><time>2014-7-4T22:47:29Z</time></trkpt>
<trkpt lat="49.08209992" lon="-1.17666406"><ele></ele><time>2014-7-4T22:47:32Z</time></trkpt>
<trkpt lat="49.08213378" lon="-1.17659834"><ele></ele><time>2014-7-4T22:47:35Z</time></trkpt>
<trkpt lat="49.08226630" lon="-1.17633339"><ele></ele><time>2014-7-4T22:47:38Z</time></trkpt>
<trkpt lat="49.08242664" lon="-1.17601437"><ele></ele><time>2014-7-4T22:47:41Z</time></trkpt>
<trkpt lat="49.08256285" lon="-1.17572813"><ele></ele><time>2014-7-4T22:47:44Z</time></trkpt>
<trkpt lat="49.08275857" lon="-1.17544323"><ele></ele><time>2014-7-4T22:47:47Z</time></trkpt>
<trkpt lat="49.08291003" lon="-1.17540082"><ele></ele><time>2014-7-4T22:47:50Z</time></trkpt>
<trkpt lat="49.08313667" lon="-1.17547483"><ele></ele><time>2014-7-4T22:47:53Z</time></trkpt>
<trkpt lat="49.08343767" lon="-1.17557743"><ele></ele><time>2014-7-4T22:47:56Z</time></trkpt>
<trkpt lat="49.08365577" lon="-1.17566334"><ele></ele><time>2014-7-4T22:47:59Z</time></trkpt>
<trkpt lat="49.08392357" lon="-1.17575177"><ele></ele><time>2014-7-4T22:48:2Z</time></trkpt>
<trkpt lat="49.08409297" lon="-1.17580189"><ele></ele><time>2014-7-4T22:48:5Z</time></trkpt>
<trkpt lat="49.08437024" lon="-1.17587205"><ele></ele><time>2014-7-4T22:48:8Z</time></trkpt>
<trkpt lat="49.08462228" lon="-1.17596878"><ele></ele><time>2014-7-4T22:48:11Z</time></trkpt>
<trkpt lat="49.08483149" lon="-1.17608185"><ele></ele><time>2014-7-4T22:48:14Z</time></trkpt>
<trkpt lat="49.08493183" lon="-1.17617858"><ele></ele><time>2014-7-4T22:48:17Z</time></trkpt>
<trkpt lat="49.08508035" lon="-1.17633976"><ele></ele><time>2014-7-4T22:48:20Z</time></trkpt>
<trkpt lat="49.08521824" lon="-1.17653229"><ele></ele><time>2014-7-4T22:48:23Z</time></trkpt>
<trkpt lat="49.08533349" lon="-1.17670362"><ele></ele><time>2014-7-4T22:48:26Z</time></trkpt>
<trkpt lat="49.08547028" lon="-1.17688986"><ele></ele><time>2014-7-4T22:48:29Z</time></trkpt>
<trkpt lat="49.08562543" lon="-1.17709832"><ele></ele><time>2014-7-4T22:48:32Z</time></trkpt>
<trkpt lat="49.08573087" lon="-1.17726839"><ele></ele><time>2014-7-4T22:48:35Z</time></trkpt>
<trkpt lat="49.08588049" lon="-1.17746905"><ele></ele><time>2014-7-4T22:48:38Z</time></trkpt>
<trkpt lat="49.08605282" lon="-1.17761205"><ele></ele><time>2014-7-4T22:48:41Z</time></trkpt>
<trkpt lat="49.08627452" lon="-1.17764097"><ele></ele><time>2014-7-4T22:48:44Z</time></trkpt>
<trkpt lat="49.08655456" lon="-1.17749940"><ele></ele><time>2014-7-4T22:48:47Z</time></trkpt>
<trkpt lat="49.08677073" lon="-1.17736168"><ele></ele><time>2014-7-4T22:48:50Z</time></trkpt>
<trkpt lat="49.08698950" lon="-1.17721332"><ele></ele><time>2014-7-4T22:48:53Z</time></trkpt>
<trkpt lat="49.08717843" lon="-1.17706706"><ele></ele><time>2014-7-4T22:48:56Z</time></trkpt>
<trkpt lat="49.08731237" lon="-1.17697016"><ele></ele><time>2014-7-4T22:48:59Z</time></trkpt>
<trkpt lat="49.08758939" lon="-1.17678593"><ele></ele><time>2014-7-4T22:49:2Z</time></trkpt>
<trkpt lat="49.08775292" lon="-1.17668007"><ele></ele><time>2014-7-4T22:49:5Z</time></trkpt>
<trkpt lat="49.08797580" lon="-1.17653347"><ele></ele><time>2014-7-4T22:49:8Z</time></trkpt>
<trkpt lat="49.08829490" lon="-1.17632937"><ele></ele><time>2014-7-4T22:49:11Z</time></trkpt>
<trkpt lat="49.08846195" lon="-1.17621504"><ele></ele><time>2014-7-4T22:49:14Z</time></trkpt>
<trkpt lat="49.08875188" lon="-1.17602292"><ele></ele><time>2014-7-4T22:49:17Z</time></trkpt>
<trkpt lat="49.08910459" lon="-1.17579904"><ele></ele><time>2014-7-4T22:49:20Z</time></trkpt>
<trkpt lat="49.08949703" lon="-1.17554842"><ele></ele><time>2014-7-4T22:49:23Z</time></trkpt>
<trkpt lat="49.08987195" lon="-1.17532002"><ele></ele><time>2014-7-4T22:49:26Z</time></trkpt>
<trkpt lat="49.09020572" lon="-1.17517459"><ele></ele><time>2014-7-4T22:49:29Z</time></trkpt>
<trkpt lat="49.09047109" lon="-1.17508993"><ele></ele><time>2014-7-4T22:49:32Z</time></trkpt>
<trkpt lat="49.09099203" lon="-1.17492833"><ele></ele><time>2014-7-4T22:49:35Z</time></trkpt>
<trkpt lat="49.09138648" lon="-1.17481803"><ele></ele><time>2014-7-4T22:49:38Z</time></trkpt>
<trkpt lat="49.09168219" lon="-1.17474494"><ele></ele><time>2014-7-4T22:49:41Z</time></trkpt>
<trkpt lat="49.09185377" lon="-1.17451267"><ele></ele><time>2014-7-4T22:49:44Z</time></trkpt>
<trkpt lat="49.09203725" lon="-1.17376509"><ele></ele><time>2014-7-4T22:49:47Z</time></trkpt>
<trkpt lat="49.09198520" lon="-1.17332269"><ele></ele><time>2014-7-4T22:49:50Z</time></trkpt>
<trkpt lat="49.09181505" lon="-1.17325237"><ele></ele><time>2014-7-4T22:49:53Z</time></trkpt>
<trkpt lat="49.09149067" lon="-1.17313444"><ele></ele><time>2014-7-4T22:49:56Z</time></trkpt>
<trkpt lat="49.09120375" lon="-1.17303645"><ele></ele><time>2014-7-4T22:49:59Z</time></trkpt>
<trkpt lat="49.09102757" lon="-1.17296236"><ele></ele><time>2014-7-4T22:50:2Z</time></trkpt>
<trkpt lat="49.09097543" lon="-1.17292732"><ele></ele><time>2014-7-4T22:50:5Z</time></trkpt>
<trkpt lat="49.09078918" lon="-1.17264368"><ele></ele><time>2014-7-4T22:50:8Z</time></trkpt>
<trkpt lat="49.09057327" lon="-1.17226699"><ele></ele><time>2014-7-4T22:50:11Z</time></trkpt>
<trkpt lat="49.09035467" lon="-1.17194597"><ele></ele><time>2014-7-4T22:50:14Z</time></trkpt>
<trkpt lat="49.09008024" lon="-1.17154280"><ele></ele><time>2014-7-4T22:50:17Z</time></trkpt>
<trkpt lat="49.08985678" lon="-1.17116494"><ele></ele><time>2014-7-4T22:50:20Z</time></trkpt>
<trkpt lat="49.08967020" lon="-1.17070008"><ele></ele><time>2014-7-4T22:50:23Z</time></trkpt>
<trkpt lat="49.08943073" lon="-1.17004696"><ele></ele><time>2014-7-4T22:50:26Z</time></trkpt>
<trkpt lat="49.08910853" lon="-1.16934196"><ele></ele><time>2014-7-4T22:50:29Z</time></trkpt>
<trkpt lat="49.08879253" lon="-1.16870334"><ele></ele><time>2014-7-4T22:50:32Z</time></trkpt>
<trkpt lat="49.08847368" lon="-1.16804134"><ele></ele><time>2014-7-4T22:50:35Z</time></trkpt>
<trkpt lat="49.08827160" lon="-1.16722855"><ele></ele><time>2014-7-4T22:50:38Z</time></trkpt>
<trkpt lat="49.08829842" lon="-1.16677115"><ele></ele><time>2014-7-4T22:50:41Z</time></trkpt>
<trkpt lat="49.08841115" lon="-1.16657593"><ele></ele><time>2014-7-4T22:50:44Z</time></trkpt>
<trkpt lat="49.08887744" lon="-1.16595592"><ele></ele><time>2014-7-4T22:50:47Z</time></trkpt>
<trkpt lat="49.08929276" lon="-1.16535913"><ele></ele><time>2014-7-4T22:50:50Z</time></trkpt>
<trkpt lat="49.08946132" lon="-1.16504146"><ele></ele><time>2014-7-4T22:50:53Z</time></trkpt>
<trkpt lat="49.08955637" lon="-1.16472060"><ele></ele><time>2014-7-4T22:50:56Z</time></trkpt>
<trkpt lat="49.08969367" lon="-1.16453603"><ele></ele><time>2014-7-4T22:50:59Z</time></trkpt>
<trkpt lat="49.08984513" lon="-1.16461264"><ele></ele><time>2014-7-4T22:51:2Z</time></trkpt>
<trkpt lat="49.09008762" lon="-1.16459269"><ele></ele><time>2014-7-4T22:51:5Z</time></trkpt>
<trkpt lat="49.09015618" lon="-1.16441248"><ele></ele><time>2014-7-4T22:51:8Z</time></trkpt>
<trkpt lat="49.09015484" lon="-1.16429430"><ele></ele><time>2014-7-4T22:51:11Z</time></trkpt>
<trkpt lat="49.09013514" lon="-1.16417829"><ele></ele><time>2014-7-4T22:51:14Z</time></trkpt>
<trkpt lat="49.09009273" lon="-1.16400554"><ele></ele><time>2014-7-4T22:51:17Z</time></trkpt>
<trkpt lat="49.09007119" lon="-1.16383480"><ele></ele><time>2014-7-4T22:51:20Z</time></trkpt>
<trkpt lat="49.09006457" lon="-1.16372173"><ele></ele><time>2014-7-4T22:51:23Z</time></trkpt>
<trkpt lat="49.09007513" lon="-1.16360597"><ele></ele><time>2014-7-4T22:51:26Z</time></trkpt>
<trkpt lat="49.09008318" lon="-1.16353699"><ele></ele><time>2014-7-4T22:51:29Z</time></trkpt>
<trkpt lat="49.09009240" lon="-1.16350304"><ele></ele><time>2014-7-4T22:51:32Z</time></trkpt>
<trkpt lat="49.09010740" lon="-1.16339056"><ele></ele><time>2014-7-4T22:51:35Z</time></trkpt>
<trkpt lat="49.09012936" lon="-1.16333649"><ele></ele><time>2014-7-4T22:51:38Z</time></trkpt>
<trkpt lat="49.09022902" lon="-1.16322828"><ele></ele><time>2014-7-4T22:51:41Z</time></trkpt>
<trkpt lat="49.09026490" lon="-1.16322585"><ele></ele><time>2014-7-4T22:51:44Z</time></trkpt>
<trkpt lat="49.09040429" lon="-1.16320624"><ele></ele><time>2014-7-4T22:51:47Z</time></trkpt>
<trkpt lat="49.09052356" lon="-1.16319870"><ele></ele><time>2014-7-4T22:51:50Z</time></trkpt>
<trkpt lat="49.09064895" lon="-1.16317590"><ele></ele><time>2014-7-4T22:51:53Z</time></trkpt>
<trkpt lat="49.09078508" lon="-1.16315578"><ele></ele><time>2014-7-4T22:51:56Z</time></trkpt>
<trkpt lat="49.09089278" lon="-1.16311479"><ele></ele><time>2014-7-4T22:51:59Z</time></trkpt>
<trkpt lat="49.09101918" lon="-1.16305017"><ele></ele><time>2014-7-4T22:52:2Z</time></trkpt>
<trkpt lat="49.09115690" lon="-1.16297456"><ele></ele><time>2014-7-4T22:52:5Z</time></trkpt>
<trkpt lat="49.09128615" lon="-1.16288798"><ele></ele><time>2014-7-4T22:52:8Z</time></trkpt>
<trkpt lat="49.09140039" lon="-1.16279217"><ele></ele><time>2014-7-4T22:52:11Z</time></trkpt>
<trkpt lat="49.09152252" lon="-1.16268086"><ele></ele><time>2014-7-4T22:52:14Z</time></trkpt>
<trkpt lat="49.09162327" lon="-1.16255304"><ele></ele><time>2014-7-4T22:52:17Z</time></trkpt>
<trkpt lat="49.09172167" lon="-1.16243293"><ele></ele><time>2014-7-4T22:52:20Z</time></trkpt>
<trkpt lat="49.09174103" lon="-1.16241222"><ele></ele><time>2014-7-4T22:52:23Z</time></trkpt>
<trkpt lat="49.09183022" lon="-1.16226956"><ele></ele><time>2014-7-4T22:52:26Z</time></trkpt>
<trkpt lat="49.09193658" lon="-1.16212858"><ele></ele><time>2014-7-4T22:52:29Z</time></trkpt>
<trkpt lat="49.09205602" lon="-1.16203269"><ele></ele><time>2014-7-4T22:52:32Z</time></trkpt>
<trkpt lat="49.09217723" lon="-1.16189967"><ele></ele><time>2014-7-4T22:52:35Z</time></trkpt>
<trkpt lat="49.09226473" lon="-1.16178467"><ele></ele><time>2014-7-4T22:52:38Z</time></trkpt>
<trkpt lat="49.09236683" lon="-1.16167545"><ele></ele><time>2014-7-4T22:52:41Z</time></trkpt>
<trkpt lat="49.09247495" lon="-1.16155148"><ele></ele><time>2014-7-4T22:52:44Z</time></trkpt>
<trkpt lat="49.09251728" lon="-1.16149222"><ele></ele><time>2014-7-4T22:52:47Z</time></trkpt>
<trkpt lat="49.09261535" lon="-1.16138946"><ele></ele><time>2014-7-4T22:52:50Z</time></trkpt>
<trkpt lat="49.09262968" lon="-1.16136557"><ele></ele><time>2014-7-4T22:52:53Z</time></trkpt>
<trkpt lat="49.09274946" lon="-1.16125200"><ele></ele><time>2014-7-4T22:52:56Z</time></trkpt>
<trkpt lat="49.09288365" lon="-1.16113943"><ele></ele><time>2014-7-4T22:52:59Z</time></trkpt>
<trkpt lat="49.09294208" lon="-1.16109869"><ele></ele><time>2014-7-4T22:53:2Z</time></trkpt>
<trkpt lat="49.09303025" lon="-1.16095059"><ele></ele><time>2014-7-4T22:53:5Z</time></trkpt>
<trkpt lat="49.09307325" lon="-1.16084766"><ele></ele><time>2014-7-4T22:53:8Z</time></trkpt>
<trkpt lat="49.09318557" lon="-1.16060693"><ele></ele><time>2014-7-4T22:53:11Z</time></trkpt>
<trkpt lat="49.09330803" lon="-1.16037274"><ele></ele><time>2014-7-4T22:53:14Z</time></trkpt>
<trkpt lat="49.09341892" lon="-1.16023293"><ele></ele><time>2014-7-4T22:53:17Z</time></trkpt>
<trkpt lat="49.09368102" lon="-1.16009546"><ele></ele><time>2014-7-4T22:53:20Z</time></trkpt>
<trkpt lat="49.09374682" lon="-1.16010678"><ele></ele><time>2014-7-4T22:53:23Z</time></trkpt>
<trkpt lat="49.09413398" lon="-1.16016277"><ele></ele><time>2014-7-4T22:53:26Z</time></trkpt>
<trkpt lat="49.09444755" lon="-1.16016964"><ele></ele><time>2014-7-4T22:53:29Z</time></trkpt>
<trkpt lat="49.09460857" lon="-1.15994115"><ele></ele><time>2014-7-4T22:53:32Z</time></trkpt>
<trkpt lat="49.09477277" lon="-1.15959339"><ele></ele><time>2014-7-4T22:53:35Z</time></trkpt>
<trkpt lat="49.09487092" lon="-1.15917647"><ele></ele><time>2014-7-4T22:53:38Z</time></trkpt>
<trkpt lat="49.09499883" lon="-1.15887556"><ele></ele><time>2014-7-4T22:53:41Z</time></trkpt>
<trkpt lat="49.09511877" lon="-1.15859033"><ele></ele><time>2014-7-4T22:53:44Z</time></trkpt>
<trkpt lat="49.09523352" lon="-1.15820786"><ele></ele><time>2014-7-4T22:53:47Z</time></trkpt>
<trkpt lat="49.09529923" lon="-1.15790385"><ele></ele><time>2014-7-4T22:53:50Z</time></trkpt>
<trkpt lat="49.09536973" lon="-1.15748735"><ele></ele><time>2014-7-4T22:53:53Z</time></trkpt>
<trkpt lat="49.09538389" lon="-1.15692962"><ele></ele><time>2014-7-4T22:53:56Z</time></trkpt>
<trkpt lat="49.09539445" lon="-1.15647482"><ele></ele><time>2014-7-4T22:53:59Z</time></trkpt>
<trkpt lat="49.09545195" lon="-1.15616670"><ele></ele><time>2014-7-4T22:54:2Z</time></trkpt>
<trkpt lat="49.09553309" lon="-1.15588758"><ele></ele><time>2014-7-4T22:54:5Z</time></trkpt>
<trkpt lat="49.09556477" lon="-1.15579119"><ele></ele><time>2014-7-4T22:54:8Z</time></trkpt>
<trkpt lat="49.09566846" lon="-1.15550629"><ele></ele><time>2014-7-4T22:54:11Z</time></trkpt>
<trkpt lat="49.09571414" lon="-1.15524662"><ele></ele><time>2014-7-4T22:54:14Z</time></trkpt>
<trkpt lat="49.09571917" lon="-1.15520949"><ele></ele><time>2014-7-4T22:54:17Z</time></trkpt>
<trkpt lat="49.09572319" lon="-1.15517286"><ele></ele><time>2014-7-4T22:54:20Z</time></trkpt>
<trkpt lat="49.09576896" lon="-1.15485258"><ele></ele><time>2014-7-4T22:54:23Z</time></trkpt>
<trkpt lat="49.09581237" lon="-1.15455813"><ele></ele><time>2014-7-4T22:54:26Z</time></trkpt>
<trkpt lat="49.09586987" lon="-1.15409067"><ele></ele><time>2014-7-4T22:54:29Z</time></trkpt>
<trkpt lat="49.09591975" lon="-1.15359589"><ele></ele><time>2014-7-4T22:54:32Z</time></trkpt>
<trkpt lat="49.09596224" lon="-1.15318526"><ele></ele><time>2014-7-4T22:54:35Z</time></trkpt>
<trkpt lat="49.09603273" lon="-1.15283866"><ele></ele><time>2014-7-4T22:54:38Z</time></trkpt>
<trkpt lat="49.09610004" lon="-1.15246844"><ele></ele><time>2014-7-4T22:54:41Z</time></trkpt>
<trkpt lat="49.09621378" lon="-1.15193568"><ele></ele><time>2014-7-4T22:54:44Z</time></trkpt>
<trkpt lat="49.09632292" lon="-1.15149789"><ele></ele><time>2014-7-4T22:54:47Z</time></trkpt>
<trkpt lat="49.09643884" lon="-1.15111543"><ele></ele><time>2014-7-4T22:54:50Z</time></trkpt>
<trkpt lat="49.09652006" lon="-1.15089213"><ele></ele><time>2014-7-4T22:54:53Z</time></trkpt>
<trkpt lat="49.09663539" lon="-1.15062802"><ele></ele><time>2014-7-4T22:54:56Z</time></trkpt>
<trkpt lat="49.09670706" lon="-1.15048167"><ele></ele><time>2014-7-4T22:54:59Z</time></trkpt>
<trkpt lat="49.09670847" lon="-1.15048331"><ele></ele><time>2014-7-4T22:55:2Z</time></trkpt>
<trkpt lat="49.09674835" lon="-1.15052964"><ele></ele><time>2014-7-4T22:55:5Z</time></trkpt>
<trkpt lat="49.09674905" lon="-1.15053046"><ele></ele><time>2014-7-4T22:55:8Z</time></trkpt>
<trkpt lat="49.09683933" lon="-1.15052903"><ele></ele><time>2014-7-4T22:55:11Z</time></trkpt>
<trkpt lat="49.09685760" lon="-1.15050464"><ele></ele><time>2014-7-4T22:55:14Z</time></trkpt>
<trkpt lat="49.09698467" lon="-1.15030062"><ele></ele><time>2014-7-4T22:55:17Z</time></trkpt>
<trkpt lat="49.09709606" lon="-1.15012896"><ele></ele><time>2014-7-4T22:55:20Z</time></trkpt>
<trkpt lat="49.09719187" lon="-1.14999468"><ele></ele><time>2014-7-4T22:55:23Z</time></trkpt>
<trkpt lat="49.09737644" lon="-1.14971582"><ele></ele><time>2014-7-4T22:55:26Z</time></trkpt>
<trkpt lat="49.09756168" lon="-1.14944232"><ele></ele><time>2014-7-4T22:55:29Z</time></trkpt>
<trkpt lat="49.09772554" lon="-1.14920083"><ele></ele><time>2014-7-4T22:55:32Z</time></trkpt>
<trkpt lat="49.09789553" lon="-1.14893546"><ele></ele><time>2014-7-4T22:55:35Z</time></trkpt>
<trkpt lat="49.09801573" lon="-1.14873120"><ele></ele><time>2014-7-4T22:55:38Z</time></trkpt>
<trkpt lat="49.09809133" lon="-1.14859776"><ele></ele><time>2014-7-4T22:55:41Z</time></trkpt>
<trkpt lat="49.09819342" lon="-1.14841109"><ele></ele><time>2014-7-4T22:55:44Z</time></trkpt>
<trkpt lat="49.09834262" lon="-1.14811772"><ele></ele><time>2014-7-4T22:55:47Z</time></trkpt>
<trkpt lat="49.09854177" lon="-1.14777323"><ele></ele><time>2014-7-4T22:55:50Z</time></trkpt>
<trkpt lat="49.09869684" lon="-1.14778312"><ele></ele><time>2014-7-4T22:55:53Z</time></trkpt>
<trkpt lat="49.09872576" lon="-1.14781673"><ele></ele><time>2014-7-4T22:55:56Z</time></trkpt>
<trkpt lat="49.09892298" lon="-1.14810725"><ele></ele><time>2014-7-4T22:55:59Z</time></trkpt>
<trkpt lat="49.09913203" lon="-1.14840665"><ele></ele><time>2014-7-4T22:56:2Z</time></trkpt>
<trkpt lat="49.09934870" lon="-1.14869842"><ele></ele><time>2014-7-4T22:56:5Z</time></trkpt>
<trkpt lat="49.09963796" lon="-1.14907888"><ele></ele><time>2014-7-4T22:56:8Z</time></trkpt>
<trkpt lat="49.09982974" lon="-1.14925113"><ele></ele><time>2014-7-4T22:56:11Z</time></trkpt>
<trkpt lat="49.10003233" lon="-1.14931064"><ele></ele><time>2014-7-4T22:56:14Z</time></trkpt>
<trkpt lat="49.10019049" lon="-1.14933805"><ele></ele><time>2014-7-4T22:56:17Z</time></trkpt>
<trkpt lat="49.10039476" lon="-1.14932824"><ele></ele><time>2014-7-4T22:56:20Z</time></trkpt>
<trkpt lat="49.10063733" lon="-1.14935523"><ele></ele><time>2014-7-4T22:56:23Z</time></trkpt>
<trkpt lat="49.10081268" lon="-1.14938105"><ele></ele><time>2014-7-4T22:56:26Z</time></trkpt>
<trkpt lat="49.10102843" lon="-1.14941558"><ele></ele><time>2014-7-4T22:56:29Z</time></trkpt>
<trkpt lat="49.10132063" lon="-1.14945950"><ele></ele><time>2014-7-4T22:56:32Z</time></trkpt>
<trkpt lat="49.10144007" lon="-1.14933134"><ele></ele><time>2014-7-4T22:56:35Z</time></trkpt>
<trkpt lat="49.10154266" lon="-1.14896815"><ele></ele><time>2014-7-4T22:56:38Z</time></trkpt>
<trkpt lat="49.10165045" lon="-1.14865869"><ele></ele><time>2014-7-4T22:56:41Z</time></trkpt>
<trkpt lat="49.10172589" lon="-1.14847907"><ele></ele><time>2014-7-4T22:56:44Z</time></trkpt>
<trkpt lat="49.10186545" lon="-1.14815813"><ele></ele><time>2014-7-4T22:56:47Z</time></trkpt>
<trkpt lat="49.10206259" lon="-1.14775772"><ele></ele><time>2014-7-4T22:56:50Z</time></trkpt>
<trkpt lat="49.10208539" lon="-1.14770349"><ele></ele><time>2014-7-4T22:56:53Z</time></trkpt>
<trkpt lat="49.10231246" lon="-1.14732136"><ele></ele><time>2014-7-4T22:56:56Z</time></trkpt>
<trkpt lat="49.10251999" lon="-1.14702757"><ele></ele><time>2014-7-4T22:56:59Z</time></trkpt>
<trkpt lat="49.10283549" lon="-1.14662474"><ele></ele><time>2014-7-4T22:57:2Z</time></trkpt>
<trkpt lat="49.10301025" lon="-1.14638326"><ele></ele><time>2014-7-4T22:57:5Z</time></trkpt>
<trkpt lat="49.10320303" lon="-1.14618712"><ele></ele><time>2014-7-4T22:57:8Z</time></trkpt>
<trkpt lat="49.10335986" lon="-1.14599073"><ele></ele><time>2014-7-4T22:57:11Z</time></trkpt>
<trkpt lat="49.10347017" lon="-1.14575327"><ele></ele><time>2014-7-4T22:57:14Z</time></trkpt>
<trkpt lat="49.10358659" lon="-1.14537257"><ele></ele><time>2014-7-4T22:57:17Z</time></trkpt>
<trkpt lat="49.10370788" lon="-1.14494853"><ele></ele><time>2014-7-4T22:57:20Z</time></trkpt>
<trkpt lat="49.10377175" lon="-1.14470026"><ele></ele><time>2014-7-4T22:57:23Z</time></trkpt>
<trkpt lat="49.10383662" lon="-1.14443757"><ele></ele><time>2014-7-4T22:57:26Z</time></trkpt>
<trkpt lat="49.10387677" lon="-1.14427839"><ele></ele><time>2014-7-4T22:57:29Z</time></trkpt>
<trkpt lat="49.10389496" lon="-1.14422073"><ele></ele><time>2014-7-4T22:57:32Z</time></trkpt>
<trkpt lat="49.10397517" lon="-1.14393155"><ele></ele><time>2014-7-4T22:57:35Z</time></trkpt>
<trkpt lat="49.10406972" lon="-1.14353324"><ele></ele><time>2014-7-4T22:57:38Z</time></trkpt>
<trkpt lat="49.10422236" lon="-1.14299697"><ele></ele><time>2014-7-4T22:57:41Z</time></trkpt>
<trkpt lat="49.10429209" lon="-1.14273403"><ele></ele><time>2014-7-4T22:57:44Z</time></trkpt>
<trkpt lat="49.10442897" lon="-1.14219398"><ele></ele><time>2014-7-4T22:57:47Z</time></trkpt>
<trkpt lat="49.10446325" lon="-1.14201687"><ele></ele><time>2014-7-4T22:57:50Z</time></trkpt>
<trkpt lat="49.10449385" lon="-1.14191076"><ele></ele><time>2014-7-4T22:57:53Z</time></trkpt>
<trkpt lat="49.10456199" lon="-1.14160566"><ele></ele><time>2014-7-4T22:57:56Z</time></trkpt>
<trkpt lat="49.10462519" lon="-1.14133467"><ele></ele><time>2014-7-4T22:57:59Z</time></trkpt>
<trkpt lat="49.10470298" lon="-1.14103259"><ele></ele><time>2014-7-4T22:58:2Z</time></trkpt>
<trkpt lat="49.10484589" lon="-1.14058197"><ele></ele><time>2014-7-4T22:58:5Z</time></trkpt>
<trkpt lat="49.10488830" lon="-1.14045876"><ele></ele><time>2014-7-4T22:58:8Z</time></trkpt>
<trkpt lat="49.10485452" lon="-1.14028735"><ele></ele><time>2014-7-4T22:58:11Z</time></trkpt>
<trkpt lat="49.10481194" lon="-1.14026053"><ele></ele><time>2014-7-4T22:58:14Z</time></trkpt>
<trkpt lat="49.10443635" lon="-1.13997445"><ele></ele><time>2014-7-4T22:58:17Z</time></trkpt>
<trkpt lat="49.10422345" lon="-1.13979793"><ele></ele><time>2014-7-4T22:58:20Z</time></trkpt>
<trkpt lat="49.10399303" lon="-1.13961009"><ele></ele><time>2014-7-4T22:58:23Z</time></trkpt>
<trkpt lat="49.10375222" lon="-1.13940910"><ele></ele><time>2014-7-4T22:58:26Z</time></trkpt>
<trkpt lat="49.10350973" lon="-1.13920156"><ele></ele><time>2014-7-4T22:58:29Z</time></trkpt>
<trkpt lat="49.10317068" lon="-1.13889319"><ele></ele><time>2014-7-4T22:58:32Z</time></trkpt>
<trkpt lat="49.10276189" lon="-1.13850737"><ele></ele><time>2014-7-4T22:58:35Z</time></trkpt>
<trkpt lat="49.10238069" lon="-1.13816237"><ele></ele><time>2014-7-4T22:58:38Z</time></trkpt>
<trkpt lat="49.10214398" lon="-1.13798157"><ele></ele><time>2014-7-4T22:58:41Z</time></trkpt>
<trkpt lat="49.10209193" lon="-1.13778418"><ele></ele><time>2014-7-4T22:58:44Z</time></trkpt>
<trkpt lat="49.10212076" lon="-1.13760573"><ele></ele><time>2014-7-4T22:58:47Z</time></trkpt>
<trkpt lat="49.10223987" lon="-1.13688488"><ele></ele><time>2014-7-4T22:58:50Z</time></trkpt>
<trkpt lat="49.10236325" lon="-1.13623378"><ele></ele><time>2014-7-4T22:58:53Z</time></trkpt>
<trkpt lat="49.10247490" lon="-1.13560857"><ele></ele><time>2014-7-4T22:58:56Z</time></trkpt>
<trkpt lat="49.10238622" lon="-1.13523684"><ele></ele><time>2014-7-4T22:58:59Z</time></trkpt>
<trkpt lat="49.10228069" lon="-1.13510616"><ele></ele><time>2014-7-4T22:59:2Z</time></trkpt>
<trkpt lat="49.10209687" lon="-1.13472847"><ele></ele><time>2014-7-4T22:59:5Z</time></trkpt>
<trkpt lat="49.10213652" lon="-1.13454809"><ele></ele><time>2014-7-4T22:59:8Z</time></trkpt>
<trkpt lat="49.10231162" lon="-1.13410737"><ele></ele><time>2014-7-4T22:59:11Z</time></trkpt>
<trkpt lat="49.10231246" lon="-1.13372030"><ele></ele><time>2014-7-4T22:59:14Z</time></trkpt>
<trkpt lat="49.10227373" lon="-1.13351846"><ele></ele><time>2014-7-4T22:59:17Z</time></trkpt>
<trkpt lat="49.10231179" lon="-1.13326457"><ele></ele><time>2014-7-4T22:59:20Z</time></trkpt>
<trkpt lat="49.10231573" lon="-1.13305293"><ele></ele><time>2014-7-4T22:59:23Z</time></trkpt>
<trkpt lat="49.10216846" lon="-1.13273635"><ele></ele><time>2014-7-4T22:59:26Z</time></trkpt>
<trkpt lat="49.10213459" lon="-1.13267876"><ele></ele><time>2014-7-4T22:59:29Z</time></trkpt>
<trkpt lat="49.10204516" lon="-1.13238858"><ele></ele><time>2014-7-4T22:59:32Z</time></trkpt>
<trkpt lat="49.10212135" lon="-1.13240249"><ele></ele><time>2014-7-4T22:59:35Z</time></trkpt>
<trkpt lat="49.10221523" lon="-1.13241683"><ele></ele><time>2014-7-4T22:59:38Z</time></trkpt>
<trkpt lat="49.10241807" lon="-1.13230602"><ele></ele><time>2014-7-4T22:59:41Z</time></trkpt>
<trkpt lat="49.10241673" lon="-1.13214022"><ele></ele><time>2014-7-4T22:59:44Z</time></trkpt>
<trkpt lat="49.10239728" lon="-1.13210033"><ele></ele><time>2014-7-4T22:59:47Z</time></trkpt>
<trkpt lat="49.10221187" lon="-1.13182079"><ele></ele><time>2014-7-4T22:59:50Z</time></trkpt>
<trkpt lat="49.10218497" lon="-1.13178123"><ele></ele><time>2014-7-4T22:59:53Z</time></trkpt>
<trkpt lat="49.10213929" lon="-1.13170428"><ele></ele><time>2014-7-4T22:59:56Z</time></trkpt>
<trkpt lat="49.10218723" lon="-1.13166397"><ele></ele><time>2014-7-4T22:59:59Z</time></trkpt>
<trkpt lat="49.10241379" lon="-1.13193135"><ele></ele><time>2014-7-4T23:0:2Z</time></trkpt>
<trkpt lat="49.10268780" lon="-1.13222974"><ele></ele><time>2014-7-4T23:0:5Z</time></trkpt>
<trkpt lat="49.10285678" lon="-1.13230929"><ele></ele><time>2014-7-4T23:0:8Z</time></trkpt>
<trkpt lat="49.10305518" lon="-1.13222430"><ele></ele><time>2014-7-4T23:0:11Z</time></trkpt>
<trkpt lat="49.10319960" lon="-1.13214995"><ele></ele><time>2014-7-4T23:0:14Z</time></trkpt>
<trkpt lat="49.10341945" lon="-1.13204945"><ele></ele><time>2014-7-4T23:0:17Z</time></trkpt>
<trkpt lat="49.10362397" lon="-1.13196027"><ele></ele><time>2014-7-4T23:0:20Z</time></trkpt>
<trkpt lat="49.10379253" lon="-1.13189363"><ele></ele><time>2014-7-4T23:0:23Z</time></trkpt>
<trkpt lat="49.10401516" lon="-1.13180302"><ele></ele><time>2014-7-4T23:0:26Z</time></trkpt>
<trkpt lat="49.10426125" lon="-1.13170093"><ele></ele><time>2014-7-4T23:0:29Z</time></trkpt>
<trkpt lat="49.10446837" lon="-1.13161736"><ele></ele><time>2014-7-4T23:0:32Z</time></trkpt>
<trkpt lat="49.10460290" lon="-1.13156439"><ele></ele><time>2014-7-4T23:0:35Z</time></trkpt>
<trkpt lat="49.10478269" lon="-1.13148132"><ele></ele><time>2014-7-4T23:0:38Z</time></trkpt>
<trkpt lat="49.10500078" lon="-1.13137772"><ele></ele><time>2014-7-4T23:0:41Z</time></trkpt>
<trkpt lat="49.10527085" lon="-1.13128007"><ele></ele><time>2014-7-4T23:0:44Z</time></trkpt>
<trkpt lat="49.10543254" lon="-1.13124034"><ele></ele><time>2014-7-4T23:0:47Z</time></trkpt>
<trkpt lat="49.10558794" lon="-1.13120464"><ele></ele><time>2014-7-4T23:0:50Z</time></trkpt>
<trkpt lat="49.10583822" lon="-1.13113917"><ele></ele><time>2014-7-4T23:0:53Z</time></trkpt>
<trkpt lat="49.10600963" lon="-1.13111327"><ele></ele><time>2014-7-4T23:0:56Z</time></trkpt>
<trkpt lat="49.10618892" lon="-1.13106843"><ele></ele><time>2014-7-4T23:0:59Z</time></trkpt>
<trkpt lat="49.10643510" lon="-1.13099509"><ele></ele><time>2014-7-4T23:1:2Z</time></trkpt>
<trkpt lat="49.10655202" lon="-1.13096064"><ele></ele><time>2014-7-4T23:1:5Z</time></trkpt>
<trkpt lat="49.10680046" lon="-1.13088445"><ele></ele><time>2014-7-4T23:1:8Z</time></trkpt>
<trkpt lat="49.10699953" lon="-1.13082209"><ele></ele><time>2014-7-4T23:1:11Z</time></trkpt>
<trkpt lat="49.10721503" lon="-1.13074875"><ele></ele><time>2014-7-4T23:1:14Z</time></trkpt>
<trkpt lat="49.10746205" lon="-1.13066819"><ele></ele><time>2014-7-4T23:1:17Z</time></trkpt>
<trkpt lat="49.10764938" lon="-1.13063358"><ele></ele><time>2014-7-4T23:1:20Z</time></trkpt>
<trkpt lat="49.10786186" lon="-1.13058077"><ele></ele><time>2014-7-4T23:1:23Z</time></trkpt>
<trkpt lat="49.10801073" lon="-1.13049603"><ele></ele><time>2014-7-4T23:1:26Z</time></trkpt>
<trkpt lat="49.10804182" lon="-1.13027399"><ele></ele><time>2014-7-4T23:1:29Z</time></trkpt>
<trkpt lat="49.10806529" lon="-1.13001449"><ele></ele><time>2014-7-4T23:1:32Z</time></trkpt>
<trkpt lat="49.10806789" lon="-1.12980922"><ele></ele><time>2014-7-4T23:1:35Z</time></trkpt>
<trkpt lat="49.10803042" lon="-1.12955566"><ele></ele><time>2014-7-4T23:1:38Z</time></trkpt>
<trkpt lat="49.10801056" lon="-1.12932768"><ele></ele><time>2014-7-4T23:1:41Z</time></trkpt>
<trkpt lat="49.10798843" lon="-1.12917446"><ele></ele><time>2014-7-4T23:1:44Z</time></trkpt>
<trkpt lat="49.10784082" lon="-1.12877606"><ele></ele><time>2014-7-4T23:1:47Z</time></trkpt>
<trkpt lat="49.10780470" lon="-1.12870884"><ele></ele><time>2014-7-4T23:1:50Z</time></trkpt>
<trkpt lat="49.10766732" lon="-1.12841908"><ele></ele><time>2014-7-4T23:1:53Z</time></trkpt>
<trkpt lat="49.10753120" lon="-1.12802085"><ele></ele><time>2014-7-4T23:1:56Z</time></trkpt>
<trkpt lat="49.10747462" lon="-1.12771575"><ele></ele><time>2014-7-4T23:1:59Z</time></trkpt>
<trkpt lat="49.10748828" lon="-1.12764828"><ele></ele><time>2014-7-4T23:2:2Z</time></trkpt>
<trkpt lat="49.10761284" lon="-1.12710639"><ele></ele><time>2014-7-4T23:2:5Z</time></trkpt>
<trkpt lat="49.10775835" lon="-1.12668922"><ele></ele><time>2014-7-4T23:2:8Z</time></trkpt>
<trkpt lat="49.10784057" lon="-1.12643835"><ele></ele><time>2014-7-4T23:2:11Z</time></trkpt>
<trkpt lat="49.10808834" lon="-1.12596620"><ele></ele><time>2014-7-4T23:2:14Z</time></trkpt>
<trkpt lat="49.10826654" lon="-1.12574089"><ele></ele><time>2014-7-4T23:2:17Z</time></trkpt>
<trkpt lat="49.10829923" lon="-1.12570049"><ele></ele><time>2014-7-4T23:2:20Z</time></trkpt>
<trkpt lat="49.10837785" lon="-1.12547150"><ele></ele><time>2014-7-4T23:2:23Z</time></trkpt>
<trkpt lat="49.10849025" lon="-1.12500303"><ele></ele><time>2014-7-4T23:2:26Z</time></trkpt>
<trkpt lat="49.10851649" lon="-1.12493229"><ele></ele><time>2014-7-4T23:2:29Z</time></trkpt>
<trkpt lat="49.10862713" lon="-1.12472584"><ele></ele><time>2014-7-4T23:2:32Z</time></trkpt>
<trkpt lat="49.10887549" lon="-1.12433676"><ele></ele><time>2014-7-4T23:2:35Z</time></trkpt>
<trkpt lat="49.10901287" lon="-1.12400022"><ele></ele><time>2014-7-4T23:2:38Z</time></trkpt>
<trkpt lat="49.10907975" lon="-1.12385195"><ele></ele><time>2014-7-4T23:2:41Z</time></trkpt>
<trkpt lat="49.10913306" lon="-1.12363955"><ele></ele><time>2014-7-4T23:2:44Z</time></trkpt>
<trkpt lat="49.10924044" lon="-1.12338088"><ele></ele><time>2014-7-4T23:2:47Z</time></trkpt>
<trkpt lat="49.10940858" lon="-1.12307495"><ele></ele><time>2014-7-4T23:2:50Z</time></trkpt>
<trkpt lat="49.10960538" lon="-1.12287059"><ele></ele><time>2014-7-4T23:2:53Z</time></trkpt>
<trkpt lat="49.10971804" lon="-1.12268049"><ele></ele><time>2014-7-4T23:2:56Z</time></trkpt>
<trkpt lat="49.10968442" lon="-1.12264697"><ele></ele><time>2014-7-4T23:2:59Z</time></trkpt>
<trkpt lat="49.10954344" lon="-1.12283078"><ele></ele><time>2014-7-4T23:3:2Z</time></trkpt>
<trkpt lat="49.10940455" lon="-1.12273699"><ele></ele><time>2014-7-4T23:3:5Z</time></trkpt>
<trkpt lat="49.10932057" lon="-1.12250732"><ele></ele><time>2014-7-4T23:3:8Z</time></trkpt>
<trkpt lat="49.10933306" lon="-1.12238863"><ele></ele><time>2014-7-4T23:3:11Z</time></trkpt>
<trkpt lat="49.10935594" lon="-1.12237413"><ele></ele><time>2014-7-4T23:3:14Z</time></trkpt>
<trkpt lat="49.10959742" lon="-1.12224589"><ele></ele><time>2014-7-4T23:3:17Z</time></trkpt>
<trkpt lat="49.10983295" lon="-1.12210994"><ele></ele><time>2014-7-4T23:3:20Z</time></trkpt>
<trkpt lat="49.10997972" lon="-1.12196954"><ele></ele><time>2014-7-4T23:3:23Z</time></trkpt>
<trkpt lat="49.11010209" lon="-1.12187524"><ele></ele><time>2014-7-4T23:3:26Z</time></trkpt>
<trkpt lat="49.11021433" lon="-1.12166134"><ele></ele><time>2014-7-4T23:3:29Z</time></trkpt>
<trkpt lat="49.11043913" lon="-1.12125155"><ele></ele><time>2014-7-4T23:3:32Z</time></trkpt>
<trkpt lat="49.11060627" lon="-1.12087109"><ele></ele><time>2014-7-4T23:3:35Z</time></trkpt>
<trkpt lat="49.11071154" lon="-1.12052073"><ele></ele><time>2014-7-4T23:3:38Z</time></trkpt>
<trkpt lat="49.11077684" lon="-1.12031344"><ele></ele><time>2014-7-4T23:3:41Z</time></trkpt>
<trkpt lat="49.11088597" lon="-1.11980944"><ele></ele><time>2014-7-4T23:3:44Z</time></trkpt>
<trkpt lat="49.11092377" lon="-1.11918432"><ele></ele><time>2014-7-4T23:3:47Z</time></trkpt>
<trkpt lat="49.11090307" lon="-1.11855123"><ele></ele><time>2014-7-4T23:3:50Z</time></trkpt>
<trkpt lat="49.11093090" lon="-1.11836557"><ele></ele><time>2014-7-4T23:3:53Z</time></trkpt>
<trkpt lat="49.11107674" lon="-1.11807564"><ele></ele><time>2014-7-4T23:3:56Z</time></trkpt>
<trkpt lat="49.11111186" lon="-1.11804287"><ele></ele><time>2014-7-4T23:3:59Z</time></trkpt>
<trkpt lat="49.11152802" lon="-1.11771665"><ele></ele><time>2014-7-4T23:4:2Z</time></trkpt>
<trkpt lat="49.11160497" lon="-1.11767340"><ele></ele><time>2014-7-4T23:4:5Z</time></trkpt>
<trkpt lat="49.11187436" lon="-1.11738925"><ele></ele><time>2014-7-4T23:4:8Z</time></trkpt>
<trkpt lat="49.11204225" lon="-1.11693906"><ele></ele><time>2014-7-4T23:4:11Z</time></trkpt>
<trkpt lat="49.11218307" lon="-1.11641217"><ele></ele><time>2014-7-4T23:4:14Z</time></trkpt>
<trkpt lat="49.11223236" lon="-1.11618410"><ele></ele><time>2014-7-4T23:4:17Z</time></trkpt>
<trkpt lat="49.11228189" lon="-1.11587162"><ele></ele><time>2014-7-4T23:4:20Z</time></trkpt>
<trkpt lat="49.11236965" lon="-1.11521448"><ele></ele><time>2014-7-4T23:4:23Z</time></trkpt>
<trkpt lat="49.11237745" lon="-1.11479362"><ele></ele><time>2014-7-4T23:4:26Z</time></trkpt>
<trkpt lat="49.11235549" lon="-1.11426439"><ele></ele><time>2014-7-4T23:4:29Z</time></trkpt>
<trkpt lat="49.11242673" lon="-1.11369610"><ele></ele><time>2014-7-4T23:4:32Z</time></trkpt>
<trkpt lat="49.11249395" lon="-1.11310534"><ele></ele><time>2014-7-4T23:4:35Z</time></trkpt>
<trkpt lat="49.11252916" lon="-1.11237125"><ele></ele><time>2014-7-4T23:4:38Z</time></trkpt>
<trkpt lat="49.11251994" lon="-1.11156349"><ele></ele><time>2014-7-4T23:4:41Z</time></trkpt>
<trkpt lat="49.11243352" lon="-1.11116510"><ele></ele><time>2014-7-4T23:4:44Z</time></trkpt>
<trkpt lat="49.11220838" lon="-1.11049748"><ele></ele><time>2014-7-4T23:4:47Z</time></trkpt>
<trkpt lat="49.11219615" lon="-1.11013563"><ele></ele><time>2014-7-4T23:4:50Z</time></trkpt>
<trkpt lat="49.11229849" lon="-1.10954764"><ele></ele><time>2014-7-4T23:4:53Z</time></trkpt>
<trkpt lat="49.11240519" lon="-1.10930650"><ele></ele><time>2014-7-4T23:4:56Z</time></trkpt>
<trkpt lat="49.11278514" lon="-1.10874466"><ele></ele><time>2014-7-4T23:4:59Z</time></trkpt>
<trkpt lat="49.11285345" lon="-1.10864407"><ele></ele><time>2014-7-4T23:5:2Z</time></trkpt>
<trkpt lat="49.11296527" lon="-1.10841273"><ele></ele><time>2014-7-4T23:5:5Z</time></trkpt>
<trkpt lat="49.11306669" lon="-1.10782323"><ele></ele><time>2014-7-4T23:5:8Z</time></trkpt>
<trkpt lat="49.11312427" lon="-1.10715855"><ele></ele><time>2014-7-4T23:5:11Z</time></trkpt>
<trkpt lat="49.11317892" lon="-1.10656804"><ele></ele><time>2014-7-4T23:5:14Z</time></trkpt>
<trkpt lat="49.11319770" lon="-1.10627778"><ele></ele><time>2014-7-4T23:5:17Z</time></trkpt>
<trkpt lat="49.11333734" lon="-1.10572290"><ele></ele><time>2014-7-4T23:5:20Z</time></trkpt>
<trkpt lat="49.11354178" lon="-1.10521596"><ele></ele><time>2014-7-4T23:5:23Z</time></trkpt>
<trkpt lat="49.11366549" lon="-1.10499334"><ele></ele><time>2014-7-4T23:5:26Z</time></trkpt>
<trkpt lat="49.11385635" lon="-1.10457709"><ele></ele><time>2014-7-4T23:5:29Z</time></trkpt>
<trkpt lat="49.11409607" lon="-1.10407242"><ele></ele><time>2014-7-4T23:5:32Z</time></trkpt>
<trkpt lat="49.11429137" lon="-1.10359423"><ele></ele><time>2014-7-4T23:5:35Z</time></trkpt>
<trkpt lat="49.11444752" lon="-1.10317966"><ele></ele><time>2014-7-4T23:5:38Z</time></trkpt>
<trkpt lat="49.11452799" lon="-1.10301487"><ele></ele><time>2014-7-4T23:5:41Z</time></trkpt>
<trkpt lat="49.11461483" lon="-1.10265403"><ele></ele><time>2014-7-4T23:5:44Z</time></trkpt>
<trkpt lat="49.11472656" lon="-1.10223569"><ele></ele><time>2014-7-4T23:5:47Z</time></trkpt>
<trkpt lat="49.11482907" lon="-1.10186856"><ele></ele><time>2014-7-4T23:5:50Z</time></trkpt>
<trkpt lat="49.11488246" lon="-1.10169883"><ele></ele><time>2014-7-4T23:5:53Z</time></trkpt>
<trkpt lat="49.11498036" lon="-1.10147595"><ele></ele><time>2014-7-4T23:5:56Z</time></trkpt>
<trkpt lat="49.11509234" lon="-1.10145014"><ele></ele><time>2014-7-4T23:5:59Z</time></trkpt>
<trkpt lat="49.11514297" lon="-1.10147746"><ele></ele><time>2014-7-4T23:6:2Z</time></trkpt>
<trkpt lat="49.11527390" lon="-1.10138426"><ele></ele><time>2014-7-4T23:6:5Z</time></trkpt>
<trkpt lat="49.11554597" lon="-1.10095586"><ele></ele><time>2014-7-4T23:6:8Z</time></trkpt>
<trkpt lat="49.11576047" lon="-1.10065578"><ele></ele><time>2014-7-4T23:6:11Z</time></trkpt>
<trkpt lat="49.11587169" lon="-1.10051438"><ele></ele><time>2014-7-4T23:6:14Z</time></trkpt>
<trkpt lat="49.11609415" lon="-1.10032445"><ele></ele><time>2014-7-4T23:6:17Z</time></trkpt>
<trkpt lat="49.11627587" lon="-1.10015706"><ele></ele><time>2014-7-4T23:6:20Z</time></trkpt>
<trkpt lat="49.11646044" lon="-1.10000216"><ele></ele><time>2014-7-4T23:6:23Z</time></trkpt>
<trkpt lat="49.11660033" lon="-1.09984308"><ele></ele><time>2014-7-4T23:6:26Z</time></trkpt>
<trkpt lat="49.11677820" lon="-1.09970109"><ele></ele><time>2014-7-4T23:6:29Z</time></trkpt>
<trkpt lat="49.11703410" lon="-1.09954845"><ele></ele><time>2014-7-4T23:6:32Z</time></trkpt>
<trkpt lat="49.11712487" lon="-1.09943655"><ele></ele><time>2014-7-4T23:6:35Z</time></trkpt>
<trkpt lat="49.11725814" lon="-1.09931619"><ele></ele><time>2014-7-4T23:6:38Z</time></trkpt>
<trkpt lat="49.11743903" lon="-1.09915920"><ele></ele><time>2014-7-4T23:6:41Z</time></trkpt>
<trkpt lat="49.11746954" lon="-1.09911854"><ele></ele><time>2014-7-4T23:6:44Z</time></trkpt>
<trkpt lat="49.11749057" lon="-1.09889173"><ele></ele><time>2014-7-4T23:6:47Z</time></trkpt>
<trkpt lat="49.11748974" lon="-1.09883884"><ele></ele><time>2014-7-4T23:6:50Z</time></trkpt>
<trkpt lat="49.11759426" lon="-1.09870506"><ele></ele><time>2014-7-4T23:6:53Z</time></trkpt>
<trkpt lat="49.11783817" lon="-1.09858093"><ele></ele><time>2014-7-4T23:6:56Z</time></trkpt>
<trkpt lat="49.11790975" lon="-1.09837046"><ele></ele><time>2014-7-4T23:6:59Z</time></trkpt>
<trkpt lat="49.11798402" lon="-1.09832679"><ele></ele><time>2014-7-4T23:7:2Z</time></trkpt>
<trkpt lat="49.11810287" lon="-1.09828832"><ele></ele><time>2014-7-4T23:7:5Z</time></trkpt>
<trkpt lat="49.11831787" lon="-1.09826837"><ele></ele><time>2014-7-4T23:7:8Z</time></trkpt>
<trkpt lat="49.11858123" lon="-1.09822746"><ele></ele><time>2014-7-4T23:7:11Z</time></trkpt>
<trkpt lat="49.11873269" lon="-1.09821648"><ele></ele><time>2014-7-4T23:7:14Z</time></trkpt>
<trkpt lat="49.11899789" lon="-1.09823719"><ele></ele><time>2014-7-4T23:7:17Z</time></trkpt>
<trkpt lat="49.11925547" lon="-1.09828765"><ele></ele><time>2014-7-4T23:7:20Z</time></trkpt>
<trkpt lat="49.11965755" lon="-1.09820098"><ele></ele><time>2014-7-4T23:7:23Z</time></trkpt>
<trkpt lat="49.11998344" lon="-1.09815362"><ele></ele><time>2014-7-4T23:7:26Z</time></trkpt>
<trkpt lat="49.12026683" lon="-1.09810425"><ele></ele><time>2014-7-4T23:7:29Z</time></trkpt>
<trkpt lat="49.12056858" lon="-1.09806016"><ele></ele><time>2014-7-4T23:7:32Z</time></trkpt>
<trkpt lat="49.12094040" lon="-1.09800635"><ele></ele><time>2014-7-4T23:7:35Z</time></trkpt>
<trkpt lat="49.12136293" lon="-1.09796746"><ele></ele><time>2014-7-4T23:7:38Z</time></trkpt>
<trkpt lat="49.12141188" lon="-1.09797676"><ele></ele><time>2014-7-4T23:7:41Z</time></trkpt>
<trkpt lat="49.12169125" lon="-1.09815286"><ele></ele><time>2014-7-4T23:7:44Z</time></trkpt>
<trkpt lat="49.12206332" lon="-1.09858629"><ele></ele><time>2014-7-4T23:7:47Z</time></trkpt>
<trkpt lat="49.12242039" lon="-1.09900966"><ele></ele><time>2014-7-4T23:7:50Z</time></trkpt>
<trkpt lat="49.12276690" lon="-1.09943035"><ele></ele><time>2014-7-4T23:7:53Z</time></trkpt>
<trkpt lat="49.12306194" lon="-1.09978122"><ele></ele><time>2014-7-4T23:7:56Z</time></trkpt>
<trkpt lat="49.12333318" lon="-1.10012027"><ele></ele><time>2014-7-4T23:7:59Z</time></trkpt>
<trkpt lat="49.12353678" lon="-1.10035722"><ele></ele><time>2014-7-4T23:8:2Z</time></trkpt>
<trkpt lat="49.12368623" lon="-1.10055026"><ele></ele><time>2014-7-4T23:8:5Z</time></trkpt>
<trkpt lat="49.12387096" lon="-1.10078906"><ele></ele><time>2014-7-4T23:8:8Z</time></trkpt>
<trkpt lat="49.12416693" lon="-1.10109575"><ele></ele><time>2014-7-4T23:8:11Z</time></trkpt>
<trkpt lat="49.12450338" lon="-1.10152759"><ele></ele><time>2014-7-4T23:8:14Z</time></trkpt>
<trkpt lat="49.12470764" lon="-1.10188818"><ele></ele><time>2014-7-4T23:8:17Z</time></trkpt>
<trkpt lat="49.12491644" lon="-1.10243510"><ele></ele><time>2014-7-4T23:8:20Z</time></trkpt>
<trkpt lat="49.12499975" lon="-1.10305259"><ele></ele><time>2014-7-4T23:8:23Z</time></trkpt>
<trkpt lat="49.12502524" lon="-1.10383194"><ele></ele><time>2014-7-4T23:8:26Z</time></trkpt>
<trkpt lat="49.12503554" lon="-1.10479393"><ele></ele><time>2014-7-4T23:8:29Z</time></trkpt>
<trkpt lat="49.12502213" lon="-1.10533892"><ele></ele><time>2014-7-4T23:8:32Z</time></trkpt>
<trkpt lat="49.12504309" lon="-1.10551603"><ele></ele><time>2014-7-4T23:8:35Z</time></trkpt>
<trkpt lat="49.12510612" lon="-1.10563933"><ele></ele><time>2014-7-4T23:8:38Z</time></trkpt>
<trkpt lat="49.12519354" lon="-1.10608625"><ele></ele><time>2014-7-4T23:8:41Z</time></trkpt>
<trkpt lat="49.12528315" lon="-1.10658506"><ele></ele><time>2014-7-4T23:8:44Z</time></trkpt>
<trkpt lat="49.12535456" lon="-1.10689754"><ele></ele><time>2014-7-4T23:8:47Z</time></trkpt>
<trkpt lat="49.12535766" lon="-1.10739710"><ele></ele><time>2014-7-4T23:8:50Z</time></trkpt>
<trkpt lat="49.12533386" lon="-1.10761897"><ele></ele><time>2014-7-4T23:8:53Z</time></trkpt>
<trkpt lat="49.12521643" lon="-1.10815709"><ele></ele><time>2014-7-4T23:8:56Z</time></trkpt>
<trkpt lat="49.12506253" lon="-1.10844777"><ele></ele><time>2014-7-4T23:8:59Z</time></trkpt>
<trkpt lat="49.12500093" lon="-1.10859999"><ele></ele><time>2014-7-4T23:9:2Z</time></trkpt>
<trkpt lat="49.12483907" lon="-1.10909678"><ele></ele><time>2014-7-4T23:9:5Z</time></trkpt>
<trkpt lat="49.12475274" lon="-1.10930373"><ele></ele><time>2014-7-4T23:9:8Z</time></trkpt>
<trkpt lat="49.12460974" lon="-1.10950003"><ele></ele><time>2014-7-4T23:9:11Z</time></trkpt>
<trkpt lat="49.12435167" lon="-1.10974495"><ele></ele><time>2014-7-4T23:9:14Z</time></trkpt>
<trkpt lat="49.12410423" lon="-1.10992332"><ele></ele><time>2014-7-4T23:9:17Z</time></trkpt>
<trkpt lat="49.12394062" lon="-1.10999750"><ele></ele><time>2014-7-4T23:9:20Z</time></trkpt>
<trkpt lat="49.12375487" lon="-1.11014117"><ele></ele><time>2014-7-4T23:9:23Z</time></trkpt>
<trkpt lat="49.12357097" lon="-1.11039304"><ele></ele><time>2014-7-4T23:9:26Z</time></trkpt>
<trkpt lat="49.12347609" lon="-1.11059245"><ele></ele><time>2014-7-4T23:9:29Z</time></trkpt>
<trkpt lat="49.12341767" lon="-1.11075958"><ele></ele><time>2014-7-4T23:9:32Z</time></trkpt>
<trkpt lat="49.12337274" lon="-1.11093837"><ele></ele><time>2014-7-4T23:9:35Z</time></trkpt>
<trkpt lat="49.12336436" lon="-1.11119988"><ele></ele><time>2014-7-4T23:9:38Z</time></trkpt>
<trkpt lat="49.12332907" lon="-1.11177606"><ele></ele><time>2014-7-4T23:9:41Z</time></trkpt>
<trkpt lat="49.12323905" lon="-1.11226095"><ele></ele><time>2014-7-4T23:9:44Z</time></trkpt>
<trkpt lat="49.12322053" lon="-1.11232013"><ele></ele><time>2014-7-4T23:9:47Z</time></trkpt>
<trkpt lat="49.12301970" lon="-1.11264283"><ele></ele><time>2014-7-4T23:9:50Z</time></trkpt>
<trkpt lat="49.12276422" lon="-1.11289429"><ele></ele><time>2014-7-4T23:9:53Z</time></trkpt>
<trkpt lat="49.12245886" lon="-1.11315438"><ele></ele><time>2014-7-4T23:9:56Z</time></trkpt>
<trkpt lat="49.12217958" lon="-1.11332076"><ele></ele><time>2014-7-4T23:9:59Z</time></trkpt>
<trkpt lat="49.12210758" lon="-1.11320232"><ele></ele><time>2014-7-4T23:10:2Z</time></trkpt>
<trkpt lat="49.12210439" lon="-1.11315815"><ele></ele><time>2014-7-4T23:10:5Z</time></trkpt>
<trkpt lat="49.12201613" lon="-1.11290736"><ele></ele><time>2014-7-4T23:10:8Z</time></trkpt>
<trkpt lat="49.12184858" lon="-1.11274383"><ele></ele><time>2014-7-4T23:10:11Z</time></trkpt>
<trkpt lat="49.12173584" lon="-1.11261408"><ele></ele><time>2014-7-4T23:10:14Z</time></trkpt>
<trkpt lat="49.12165068" lon="-1.11255247"><ele></ele><time>2014-7-4T23:10:17Z</time></trkpt>
<trkpt lat="49.12158346" lon="-1.11250972"><ele></ele><time>2014-7-4T23:10:20Z</time></trkpt>
<trkpt lat="49.12154297" lon="-1.11247309"><ele></ele><time>2014-7-4T23:10:23Z</time></trkpt>
<trkpt lat="49.12150978" lon="-1.11244787"><ele></ele><time>2014-7-4T23:10:26Z</time></trkpt>
<trkpt lat="49.12149763" lon="-1.11243982"><ele></ele><time>2014-7-4T23:10:29Z</time></trkpt>
<trkpt lat="49.12143099" lon="-1.11242817"><ele></ele><time>2014-7-4T23:10:32Z</time></trkpt>
<trkpt lat="49.12134633" lon="-1.11242875"><ele></ele><time>2014-7-4T23:10:35Z</time></trkpt>
<trkpt lat="49.12125883" lon="-1.11240990"><ele></ele><time>2014-7-4T23:10:38Z</time></trkpt>
<trkpt lat="49.12114634" lon="-1.11238190"><ele></ele><time>2014-7-4T23:10:41Z</time></trkpt>
<trkpt lat="49.12102690" lon="-1.11233102"><ele></ele><time>2014-7-4T23:10:44Z</time></trkpt>
<trkpt lat="49.12094224" lon="-1.11228333"><ele></ele><time>2014-7-4T23:10:47Z</time></trkpt>
<trkpt lat="49.12080855" lon="-1.11221309"><ele></ele><time>2014-7-4T23:10:50Z</time></trkpt>
<trkpt lat="49.12073144" lon="-1.11214025"><ele></ele><time>2014-7-4T23:10:53Z</time></trkpt>
<trkpt lat="49.12061518" lon="-1.11200773"><ele></ele><time>2014-7-4T23:10:56Z</time></trkpt>
<trkpt lat="49.12054444" lon="-1.11190296"><ele></ele><time>2014-7-4T23:10:59Z</time></trkpt>
<trkpt lat="49.12042583" lon="-1.11185937"><ele></ele><time>2014-7-4T23:11:2Z</time></trkpt>
<trkpt lat="49.12040773" lon="-1.11185979"><ele></ele><time>2014-7-4T23:11:5Z</time></trkpt>
<trkpt lat="49.12029927" lon="-1.11189743"><ele></ele><time>2014-7-4T23:11:8Z</time></trkpt>
<trkpt lat="49.12015669" lon="-1.11186038"><ele></ele><time>2014-7-4T23:11:11Z</time></trkpt>
<trkpt lat="49.12008335" lon="-1.11183045"><ele></ele><time>2014-7-4T23:11:14Z</time></trkpt>
<trkpt lat="49.11998754" lon="-1.11187773"><ele></ele><time>2014-7-4T23:11:17Z</time></trkpt>
<trkpt lat="49.11998709" lon="-1.11187821"><ele></ele><time>2014-7-4T23:11:20Z</time></trkpt>
<trkpt lat="49.11994178" lon="-1.11192559"><ele></ele><time>2014-7-4T23:11:23Z</time></trkpt>
<trkpt lat="49.11994113" lon="-1.11192720"><ele></ele><time>2014-7-4T23:11:26Z</time></trkpt>
<trkpt lat="49.11994026" lon="-1.11192935"><ele></ele><time>2014-7-4T23:11:29Z</time></trkpt>
<trkpt lat="49.11993983" lon="-1.11193043"><ele></ele><time>2014-7-4T23:11:32Z</time></trkpt>
<trkpt lat="49.11993940" lon="-1.11193151"><ele></ele><time>2014-7-4T23:11:35Z</time></trkpt>
<trkpt lat="49.11993810" lon="-1.11193473"><ele></ele><time>2014-7-4T23:11:38Z</time></trkpt>
<trkpt lat="49.11992900" lon="-1.11195732"><ele></ele><time>2014-7-4T23:11:41Z</time></trkpt>
<trkpt lat="49.11992879" lon="-1.11195786"><ele></ele><time>2014-7-4T23:11:44Z</time></trkpt>
<trkpt lat="49.11982183" lon="-1.11200086"><ele></ele><time>2014-7-4T23:11:47Z</time></trkpt>
<trkpt lat="49.11970189" lon="-1.11200362"><ele></ele><time>2014-7-4T23:11:50Z</time></trkpt>
<trkpt lat="49.11959209" lon="-1.11198468"><ele></ele><time>2014-7-4T23:11:53Z</time></trkpt>
<trkpt lat="49.11943643" lon="-1.11194042"><ele></ele><time>2014-7-4T23:11:56Z</time></trkpt>
<trkpt lat="49.11928900" lon="-1.11189198"><ele></ele><time>2014-7-4T23:11:59Z</time></trkpt>
<trkpt lat="49.11914055" lon="-1.11181729"><ele></ele><time>2014-7-4T23:12:2Z</time></trkpt>
<trkpt lat="49.11897560" lon="-1.11173817"><ele></ele><time>2014-7-4T23:12:5Z</time></trkpt>
<trkpt lat="49.11884040" lon="-1.11169953"><ele></ele><time>2014-7-4T23:12:8Z</time></trkpt>
<trkpt lat="49.11870897" lon="-1.11165083"><ele></ele><time>2014-7-4T23:12:11Z</time></trkpt>
<trkpt lat="49.11863127" lon="-1.11163004"><ele></ele><time>2014-7-4T23:12:14Z</time></trkpt>
<trkpt lat="49.11860042" lon="-1.11172300"><ele></ele><time>2014-7-4T23:12:17Z</time></trkpt>
<trkpt lat="49.11860730" lon="-1.11194294"><ele></ele><time>2014-7-4T23:12:20Z</time></trkpt>
<trkpt lat="49.11856228" lon="-1.11215098"><ele></ele><time>2014-7-4T23:12:23Z</time></trkpt>
<trkpt lat="49.11853362" lon="-1.11230487"><ele></ele><time>2014-7-4T23:12:26Z</time></trkpt>
<trkpt lat="49.11852892" lon="-1.11236773"><ele></ele><time>2014-7-4T23:12:29Z</time></trkpt>
<trkpt lat="49.11852549" lon="-1.11249380"><ele></ele><time>2014-7-4T23:12:32Z</time></trkpt>
<trkpt lat="49.11851979" lon="-1.11276479"><ele></ele><time>2014-7-4T23:12:35Z</time></trkpt>
<trkpt lat="49.11853613" lon="-1.11307785"><ele></ele><time>2014-7-4T23:12:38Z</time></trkpt>
<trkpt lat="49.11851929" lon="-1.11341648"><ele></ele><time>2014-7-4T23:12:41Z</time></trkpt>
<trkpt lat="49.11836020" lon="-1.11348429"><ele></ele><time>2014-7-4T23:12:44Z</time></trkpt>
<trkpt lat="49.11814847" lon="-1.11351865"><ele></ele><time>2014-7-4T23:12:47Z</time></trkpt>
<trkpt lat="49.11807463" lon="-1.11353357"><ele></ele><time>2014-7-4T23:12:50Z</time></trkpt>
<trkpt lat="49.11805065" lon="-1.11353743"><ele></ele><time>2014-7-4T23:12:53Z</time></trkpt>
<trkpt lat="49.11775938" lon="-1.11357582"><ele></ele><time>2014-7-4T23:12:56Z</time></trkpt>
<trkpt lat="49.11765989" lon="-1.11357733"><ele></ele><time>2014-7-4T23:12:59Z</time></trkpt>
<trkpt lat="49.11763659" lon="-1.11358060"><ele></ele><time>2014-7-4T23:13:2Z</time></trkpt>
<trkpt lat="49.11754900" lon="-1.11358319"><ele></ele><time>2014-7-4T23:13:5Z</time></trkpt>
<trkpt lat="49.11757112" lon="-1.11355612"><ele></ele><time>2014-7-4T23:13:8Z</time></trkpt>
<trkpt lat="49.11761622" lon="-1.11354782"><ele></ele><time>2014-7-4T23:13:11Z</time></trkpt>
<trkpt lat="49.11762720" lon="-1.11358588"><ele></ele><time>2014-7-4T23:13:14Z</time></trkpt>
<trkpt lat="49.11755009" lon="-1.11360063"><ele></ele><time>2014-7-4T23:13:17Z</time></trkpt>
<trkpt lat="49.11732160" lon="-1.11364539"><ele></ele><time>2014-7-4T23:13:20Z</time></trkpt>
<trkpt lat="49.11715312" lon="-1.11365184"><ele></ele><time>2014-7-4T23:13:23Z</time></trkpt>
<trkpt lat="49.11696193" lon="-1.11370213"><ele></ele><time>2014-7-4T23:13:26Z</time></trkpt>
<trkpt lat="49.11678264" lon="-1.11378646"><ele></ele><time>2014-7-4T23:13:29Z</time></trkpt>
<trkpt lat="49.11664702" lon="-1.11388536"><ele></ele><time>2014-7-4T23:13:32Z</time></trkpt>
<trkpt lat="49.11659807" lon="-1.11396239"><ele></ele><time>2014-7-4T23:13:35Z</time></trkpt>
<trkpt lat="49.11649497" lon="-1.11407538"><ele></ele><time>2014-7-4T23:13:38Z</time></trkpt>
<trkpt lat="49.11626640" lon="-1.11421796"><ele></ele><time>2014-7-4T23:13:41Z</time></trkpt>
<trkpt lat="49.11618819" lon="-1.11439406"><ele></ele><time>2014-7-4T23:13:44Z</time></trkpt>
<trkpt lat="49.11605543" lon="-1.11466873"><ele></ele><time>2014-7-4T23:13:47Z</time></trkpt>
<trkpt lat="49.11596222" lon="-1.11478373"><ele></ele><time>2014-7-4T23:13:50Z</time></trkpt>
<trkpt lat="49.11586868" lon="-1.11511532"><ele></ele><time>2014-7-4T23:13:53Z</time></trkpt>
<trkpt lat="49.11570037" lon="-1.11571555"><ele></ele><time>2014-7-4T23:13:56Z</time></trkpt>
<trkpt lat="49.11558503" lon="-1.11606323"><ele></ele><time>2014-7-4T23:13:59Z</time></trkpt>
<trkpt lat="49.11543433" lon="-1.11652767"><ele></ele><time>2014-7-4T23:14:2Z</time></trkpt>
<trkpt lat="49.11528856" lon="-1.11702992"><ele></ele><time>2014-7-4T23:14:5Z</time></trkpt>
<trkpt lat="49.11522025" lon="-1.11724114"><ele></ele><time>2014-7-4T23:14:8Z</time></trkpt>
<trkpt lat="49.11516376" lon="-1.11744516"><ele></ele><time>2014-7-4T23:14:11Z</time></trkpt>
<trkpt lat="49.11504029" lon="-1.11764858"><ele></ele><time>2014-7-4T23:14:14Z</time></trkpt>
<trkpt lat="49.11498665" lon="-1.11771983"><ele></ele><time>2014-7-4T23:14:17Z</time></trkpt>
<trkpt lat="49.11489369" lon="-1.11804865"><ele></ele><time>2014-7-4T23:14:20Z</time></trkpt>
<trkpt lat="49.11476855" lon="-1.11850589"><ele></ele><time>2014-7-4T23:14:23Z</time></trkpt>
<trkpt lat="49.11469094" lon="-1.11874418"><ele></ele><time>2014-7-4T23:14:26Z</time></trkpt>
<trkpt lat="49.11466286" lon="-1.11879959"><ele></ele><time>2014-7-4T23:14:29Z</time></trkpt>
<trkpt lat="49.11456496" lon="-1.11879003"><ele></ele><time>2014-7-4T23:14:32Z</time></trkpt>
<trkpt lat="49.11438282" lon="-1.11876899"><ele></ele><time>2014-7-4T23:14:35Z</time></trkpt>
<trkpt lat="49.11422029" lon="-1.11870965"><ele></ele><time>2014-7-4T23:14:38Z</time></trkpt>
<trkpt lat="49.11403262" lon="-1.11864167"><ele></ele><time>2014-7-4T23:14:41Z</time></trkpt>
<trkpt lat="49.11373959" lon="-1.11853707"><ele></ele><time>2014-7-4T23:14:44Z</time></trkpt>
<trkpt lat="49.11347665" lon="-1.11844093"><ele></ele><time>2014-7-4T23:14:47Z</time></trkpt>
<trkpt lat="49.11318965" lon="-1.11831587"><ele></ele><time>2014-7-4T23:14:50Z</time></trkpt>
<trkpt lat="49.11293308" lon="-1.11822543"><ele></ele><time>2014-7-4T23:14:53Z</time></trkpt>
<trkpt lat="49.11278942" lon="-1.11813088"><ele></ele><time>2014-7-4T23:14:56Z</time></trkpt>
<trkpt lat="49.11272932" lon="-1.11814379"><ele></ele><time>2014-7-4T23:14:59Z</time></trkpt>
<trkpt lat="49.11270895" lon="-1.11814437"><ele></ele><time>2014-7-4T23:15:2Z</time></trkpt>
<trkpt lat="49.11256285" lon="-1.11809853"><ele></ele><time>2014-7-4T23:15:5Z</time></trkpt>
<trkpt lat="49.11249437" lon="-1.11824487"><ele></ele><time>2014-7-4T23:15:8Z</time></trkpt>
<trkpt lat="49.11248775" lon="-1.11828905"><ele></ele><time>2014-7-4T23:15:11Z</time></trkpt>
<trkpt lat="49.11247912" lon="-1.11843447"><ele></ele><time>2014-7-4T23:15:14Z</time></trkpt>
<trkpt lat="49.11242732" lon="-1.11863824"><ele></ele><time>2014-7-4T23:15:17Z</time></trkpt>
<trkpt lat="49.11231726" lon="-1.11879196"><ele></ele><time>2014-7-4T23:15:20Z</time></trkpt>
<trkpt lat="49.11228332" lon="-1.11882607"><ele></ele><time>2014-7-4T23:15:23Z</time></trkpt>
<trkpt lat="49.11223512" lon="-1.11876715"><ele></ele><time>2014-7-4T23:15:26Z</time></trkpt>
<trkpt lat="49.11224577" lon="-1.11871133"><ele></ele><time>2014-7-4T23:15:29Z</time></trkpt>
<trkpt lat="49.11230260" lon="-1.11819207"><ele></ele><time>2014-7-4T23:15:32Z</time></trkpt>
<trkpt lat="49.11231265" lon="-1.11789795"><ele></ele><time>2014-7-4T23:15:35Z</time></trkpt>
<trkpt lat="49.11237644" lon="-1.11737190"><ele></ele><time>2014-7-4T23:15:38Z</time></trkpt>
<trkpt lat="49.11239572" lon="-1.11698080"><ele></ele><time>2014-7-4T23:15:41Z</time></trkpt>
<trkpt lat="49.11251239" lon="-1.11623514"><ele></ele><time>2014-7-4T23:15:44Z</time></trkpt>
<trkpt lat="49.11256864" lon="-1.11596365"><ele></ele><time>2014-7-4T23:15:47Z</time></trkpt>
<trkpt lat="49.11254374" lon="-1.11588134"><ele></ele><time>2014-7-4T23:15:50Z</time></trkpt>
<trkpt lat="49.11251776" lon="-1.11597086"><ele></ele><time>2014-7-4T23:15:53Z</time></trkpt>
<trkpt lat="49.11241315" lon="-1.11646053"><ele></ele><time>2014-7-4T23:15:56Z</time></trkpt>
<trkpt lat="49.11228709" lon="-1.11691458"><ele></ele><time>2014-7-4T23:15:59Z</time></trkpt>
<trkpt lat="49.11221894" lon="-1.11716118"><ele></ele><time>2014-7-4T23:16:2Z</time></trkpt>
<trkpt lat="49.11207637" lon="-1.11768379"><ele></ele><time>2014-7-4T23:16:5Z</time></trkpt>
<trkpt lat="49.11203823" lon="-1.11784765"><ele></ele><time>2014-7-4T23:16:8Z</time></trkpt>
<trkpt lat="49.11183815" lon="-1.11854285"><ele></ele><time>2014-7-4T23:16:11Z</time></trkpt>
<trkpt lat="49.11168502" lon="-1.11916428"><ele></ele><time>2014-7-4T23:16:14Z</time></trkpt>
<trkpt lat="49.11152442" lon="-1.11975320"><ele></ele><time>2014-7-4T23:16:17Z</time></trkpt>
<trkpt lat="49.11147522" lon="-1.11987893"><ele></ele><time>2014-7-4T23:16:20Z</time></trkpt>
<trkpt lat="49.11139023" lon="-1.12011496"><ele></ele><time>2014-7-4T23:16:23Z</time></trkpt>
<trkpt lat="49.11126894" lon="-1.12052148"><ele></ele><time>2014-7-4T23:16:26Z</time></trkpt>
<trkpt lat="49.11120272" lon="-1.12064939"><ele></ele><time>2014-7-4T23:16:29Z</time></trkpt>
<trkpt lat="49.11094037" lon="-1.12104937"><ele></ele><time>2014-7-4T23:16:32Z</time></trkpt>
<trkpt lat="49.11073510" lon="-1.12132363"><ele></ele><time>2014-7-4T23:16:35Z</time></trkpt>
<trkpt lat="49.11063200" lon="-1.12146864"><ele></ele><time>2014-7-4T23:16:38Z</time></trkpt>
<trkpt lat="49.11034232" lon="-1.12185236"><ele></ele><time>2014-7-4T23:16:41Z</time></trkpt>
<trkpt lat="49.11021466" lon="-1.12205889"><ele></ele><time>2014-7-4T23:16:44Z</time></trkpt>
<trkpt lat="49.11008122" lon="-1.12221085"><ele></ele><time>2014-7-4T23:16:47Z</time></trkpt>
<trkpt lat="49.11002926" lon="-1.12229518"><ele></ele><time>2014-7-4T23:16:50Z</time></trkpt>
<trkpt lat="49.10985198" lon="-1.12250573"><ele></ele><time>2014-7-4T23:16:53Z</time></trkpt>
<trkpt lat="49.10975223" lon="-1.12264646"><ele></ele><time>2014-7-4T23:16:56Z</time></trkpt>
<trkpt lat="49.10962617" lon="-1.12289499"><ele></ele><time>2014-7-4T23:16:59Z</time></trkpt>
<trkpt lat="49.10951125" lon="-1.12301183"><ele></ele><time>2014-7-4T23:17:2Z</time></trkpt>
<trkpt lat="49.10939324" lon="-1.12313362"><ele></ele><time>2014-7-4T23:17:5Z</time></trkpt>
<trkpt lat="49.10932819" lon="-1.12324937"><ele></ele><time>2014-7-4T23:17:8Z</time></trkpt>
<trkpt lat="49.10926935" lon="-1.12336907"><ele></ele><time>2014-7-4T23:17:11Z</time></trkpt>
<trkpt lat="49.10919953" lon="-1.12352128"><ele></ele><time>2014-7-4T23:17:14Z</time></trkpt>
<trkpt lat="49.10914773" lon="-1.12365003"><ele></ele><time>2014-7-4T23:17:17Z</time></trkpt>
<trkpt lat="49.10913189" lon="-1.12374072"><ele></ele><time>2014-7-4T23:17:20Z</time></trkpt>
<trkpt lat="49.10908118" lon="-1.12392755"><ele></ele><time>2014-7-4T23:17:23Z</time></trkpt>
<trkpt lat="49.10901362" lon="-1.12409628"><ele></ele><time>2014-7-4T23:17:26Z</time></trkpt>
<trkpt lat="49.10893542" lon="-1.12424782"><ele></ele><time>2014-7-4T23:17:29Z</time></trkpt>
<trkpt lat="49.10886367" lon="-1.12441647"><ele></ele><time>2014-7-4T23:17:32Z</time></trkpt>
<trkpt lat="49.10879142" lon="-1.12453256"><ele></ele><time>2014-7-4T23:17:35Z</time></trkpt>
<trkpt lat="49.10869628" lon="-1.12467899"><ele></ele><time>2014-7-4T23:17:38Z</time></trkpt>
<trkpt lat="49.10861716" lon="-1.12481754"><ele></ele><time>2014-7-4T23:17:41Z</time></trkpt>
<trkpt lat="49.10854164" lon="-1.12496347"><ele></ele><time>2014-7-4T23:17:44Z</time></trkpt>
<trkpt lat="49.10847710" lon="-1.12512709"><ele></ele><time>2014-7-4T23:17:47Z</time></trkpt>
<trkpt lat="49.10840434" lon="-1.12529665"><ele></ele><time>2014-7-4T23:17:50Z</time></trkpt>
<trkpt lat="49.10833184" lon="-1.12548558"><ele></ele><time>2014-7-4T23:17:53Z</time></trkpt>
<trkpt lat="49.10828548" lon="-1.12564165"><ele></ele><time>2014-7-4T23:17:56Z</time></trkpt>
<trkpt lat="49.10821290" lon="-1.12575732"><ele></ele><time>2014-7-4T23:17:59Z</time></trkpt>
<trkpt lat="49.10808340" lon="-1.12593988"><ele></ele><time>2014-7-4T23:18:2Z</time></trkpt>
<trkpt lat="49.10796454" lon="-1.12615672"><ele></ele><time>2014-7-4T23:18:5Z</time></trkpt>
<trkpt lat="49.10788449" lon="-1.12631849"><ele></ele><time>2014-7-4T23:18:8Z</time></trkpt>
<trkpt lat="49.10777888" lon="-1.12653106"><ele></ele><time>2014-7-4T23:18:11Z</time></trkpt>
<trkpt lat="49.10774552" lon="-1.12669467"><ele></ele><time>2014-7-4T23:18:14Z</time></trkpt>
<trkpt lat="49.10767738" lon="-1.12691218"><ele></ele><time>2014-7-4T23:18:17Z</time></trkpt>
<trkpt lat="49.10757948" lon="-1.12728132"><ele></ele><time>2014-7-4T23:18:20Z</time></trkpt>
<trkpt lat="49.10748719" lon="-1.12766412"><ele></ele><time>2014-7-4T23:18:23Z</time></trkpt>
<trkpt lat="49.10747764" lon="-1.12799135"><ele></ele><time>2014-7-4T23:18:26Z</time></trkpt>
<trkpt lat="49.10752055" lon="-1.12811222"><ele></ele><time>2014-7-4T23:18:29Z</time></trkpt>
<trkpt lat="49.10759046" lon="-1.12829008"><ele></ele><time>2014-7-4T23:18:32Z</time></trkpt>
<trkpt lat="49.10759825" lon="-1.12834892"><ele></ele><time>2014-7-4T23:18:35Z</time></trkpt>
<trkpt lat="49.10762985" lon="-1.12845805"><ele></ele><time>2014-7-4T23:18:38Z</time></trkpt>
<trkpt lat="49.10765148" lon="-1.12850332"><ele></ele><time>2014-7-4T23:18:41Z</time></trkpt>
<trkpt lat="49.10766237" lon="-1.12853274"><ele></ele><time>2014-7-4T23:18:44Z</time></trkpt>
<trkpt lat="49.10767939" lon="-1.12857976"><ele></ele><time>2014-7-4T23:18:47Z</time></trkpt>
<trkpt lat="49.10775072" lon="-1.12869459"><ele></ele><time>2014-7-4T23:18:50Z</time></trkpt>
<trkpt lat="49.10779858" lon="-1.12875754"><ele></ele><time>2014-7-4T23:18:53Z</time></trkpt>
<trkpt lat="49.10783647" lon="-1.12885276"><ele></ele><time>2014-7-4T23:18:56Z</time></trkpt>
<trkpt lat="49.10785172" lon="-1.12889517"><ele></ele><time>2014-7-4T23:18:59Z</time></trkpt>
<trkpt lat="49.10792263" lon="-1.12909273"><ele></ele><time>2014-7-4T23:19:2Z</time></trkpt>
<trkpt lat="49.10792707" lon="-1.12911109"><ele></ele><time>2014-7-4T23:19:5Z</time></trkpt>
<trkpt lat="49.10795256" lon="-1.12917119"><ele></ele><time>2014-7-4T23:19:8Z</time></trkpt>
<trkpt lat="49.10796404" lon="-1.12923883"><ele></ele><time>2014-7-4T23:19:11Z</time></trkpt>
<trkpt lat="49.10796865" lon="-1.12929046"><ele></ele><time>2014-7-4T23:19:14Z</time></trkpt>
<trkpt lat="49.10801894" lon="-1.12954686"><ele></ele><time>2014-7-4T23:19:17Z</time></trkpt>
<trkpt lat="49.10804383" lon="-1.12970612"><ele></ele><time>2014-7-4T23:19:20Z</time></trkpt>
<trkpt lat="49.10805683" lon="-1.12985943"><ele></ele><time>2014-7-4T23:19:23Z</time></trkpt>
<trkpt lat="49.10805704" lon="-1.12990603"><ele></ele><time>2014-7-4T23:19:26Z</time></trkpt>
<trkpt lat="49.10805720" lon="-1.12994331"><ele></ele><time>2014-7-4T23:19:29Z</time></trkpt>
<trkpt lat="49.10805725" lon="-1.12995263"><ele></ele><time>2014-7-4T23:19:32Z</time></trkpt>
<trkpt lat="49.10803244" lon="-1.13018473"><ele></ele><time>2014-7-4T23:19:35Z</time></trkpt>
<trkpt lat="49.10802196" lon="-1.13032286"><ele></ele><time>2014-7-4T23:19:38Z</time></trkpt>
<trkpt lat="49.10800955" lon="-1.13045529"><ele></ele><time>2014-7-4T23:19:41Z</time></trkpt>
<trkpt lat="49.10797619" lon="-1.13059184"><ele></ele><time>2014-7-4T23:19:44Z</time></trkpt>
<trkpt lat="49.10792892" lon="-1.13063609"><ele></ele><time>2014-7-4T23:19:47Z</time></trkpt>
<trkpt lat="49.10785407" lon="-1.13063584"><ele></ele><time>2014-7-4T23:19:50Z</time></trkpt>
<trkpt lat="49.10776086" lon="-1.13065705"><ele></ele><time>2014-7-4T23:19:53Z</time></trkpt>
<trkpt lat="49.10764712" lon="-1.13068907"><ele></ele><time>2014-7-4T23:19:56Z</time></trkpt>
<trkpt lat="49.10759356" lon="-1.13069594"><ele></ele><time>2014-7-4T23:19:59Z</time></trkpt>
<trkpt lat="49.10757244" lon="-1.13077087"><ele></ele><time>2014-7-4T23:20:2Z</time></trkpt>
<trkpt lat="49.10758669" lon="-1.13074087"><ele></ele><time>2014-7-4T23:20:5Z</time></trkpt>
<trkpt lat="49.10764217" lon="-1.13070499"><ele></ele><time>2014-7-4T23:20:8Z</time></trkpt>
<trkpt lat="49.10768819" lon="-1.13071857"><ele></ele><time>2014-7-4T23:20:11Z</time></trkpt>
<trkpt lat="49.10765315" lon="-1.13065084"><ele></ele><time>2014-7-4T23:20:14Z</time></trkpt>
<trkpt lat="49.10760714" lon="-1.13065713"><ele></ele><time>2014-7-4T23:20:17Z</time></trkpt>
<trkpt lat="49.10752994" lon="-1.13072234"><ele></ele><time>2014-7-4T23:20:20Z</time></trkpt>
<trkpt lat="49.10744847" lon="-1.13071237"><ele></ele><time>2014-7-4T23:20:23Z</time></trkpt>
<trkpt lat="49.10726910" lon="-1.13075369"><ele></ele><time>2014-7-4T23:20:26Z</time></trkpt>
<trkpt lat="49.10701278" lon="-1.13082703"><ele></ele><time>2014-7-4T23:20:29Z</time></trkpt>
<trkpt lat="49.10663274" lon="-1.13095486"><ele></ele><time>2014-7-4T23:20:32Z</time></trkpt>
<trkpt lat="49.10618188" lon="-1.13106843"><ele></ele><time>2014-7-4T23:20:35Z</time></trkpt>
<trkpt lat="49.10570654" lon="-1.13117664"><ele></ele><time>2014-7-4T23:20:38Z</time></trkpt>
<trkpt lat="49.10514529" lon="-1.13132609"><ele></ele><time>2014-7-4T23:20:41Z</time></trkpt>
<trkpt lat="49.10470088" lon="-1.13152659"><ele></ele><time>2014-7-4T23:20:44Z</time></trkpt>
<trkpt lat="49.10445278" lon="-1.13163865"><ele></ele><time>2014-7-4T23:20:47Z</time></trkpt>
<trkpt lat="49.10398616" lon="-1.13182414"><ele></ele><time>2014-7-4T23:20:50Z</time></trkpt>
<trkpt lat="49.10356002" lon="-1.13198105"><ele></ele><time>2014-7-4T23:20:53Z</time></trkpt>
<trkpt lat="49.10342759" lon="-1.13203453"><ele></ele><time>2014-7-4T23:20:56Z</time></trkpt>
<trkpt lat="49.10293196" lon="-1.13228506"><ele></ele><time>2014-7-4T23:20:59Z</time></trkpt>
<trkpt lat="49.10263784" lon="-1.13224022"><ele></ele><time>2014-7-4T23:21:2Z</time></trkpt>
<trkpt lat="49.10256559" lon="-1.13217384"><ele></ele><time>2014-7-4T23:21:5Z</time></trkpt>
<trkpt lat="49.10224264" lon="-1.13180998"><ele></ele><time>2014-7-4T23:21:8Z</time></trkpt>
<trkpt lat="49.10215144" lon="-1.13166254"><ele></ele><time>2014-7-4T23:21:11Z</time></trkpt>
<trkpt lat="49.10207332" lon="-1.13162767"><ele></ele><time>2014-7-4T23:21:14Z</time></trkpt>
<trkpt lat="49.10211079" lon="-1.13172758"><ele></ele><time>2014-7-4T23:21:17Z</time></trkpt>
<trkpt lat="49.10230667" lon="-1.13200234"><ele></ele><time>2014-7-4T23:21:20Z</time></trkpt>
<trkpt lat="49.10237373" lon="-1.13210636"><ele></ele><time>2014-7-4T23:21:23Z</time></trkpt>
<trkpt lat="49.10239929" lon="-1.13234323"><ele></ele><time>2014-7-4T23:21:26Z</time></trkpt>
<trkpt lat="49.10226208" lon="-1.13237542"><ele></ele><time>2014-7-4T23:21:29Z</time></trkpt>
<trkpt lat="49.10215437" lon="-1.13235455"><ele></ele><time>2014-7-4T23:21:32Z</time></trkpt>
<trkpt lat="49.10202689" lon="-1.13247064"><ele></ele><time>2014-7-4T23:21:35Z</time></trkpt>
<trkpt lat="49.10205538" lon="-1.13265714"><ele></ele><time>2014-7-4T23:21:38Z</time></trkpt>
<trkpt lat="49.10214566" lon="-1.13280240"><ele></ele><time>2014-7-4T23:21:41Z</time></trkpt>
<trkpt lat="49.10215647" lon="-1.13282888"><ele></ele><time>2014-7-4T23:21:44Z</time></trkpt>
<trkpt lat="49.10220534" lon="-1.13290885"><ele></ele><time>2014-7-4T23:21:47Z</time></trkpt>
<trkpt lat="49.10221992" lon="-1.13293416"><ele></ele><time>2014-7-4T23:21:50Z</time></trkpt>
<trkpt lat="49.10226434" lon="-1.13303189"><ele></ele><time>2014-7-4T23:21:53Z</time></trkpt>
<trkpt lat="49.10229527" lon="-1.13314245"><ele></ele><time>2014-7-4T23:21:56Z</time></trkpt>
<trkpt lat="49.10229444" lon="-1.13335996"><ele></ele><time>2014-7-4T23:21:59Z</time></trkpt>
<trkpt lat="49.10226946" lon="-1.13353598"><ele></ele><time>2014-7-4T23:22:2Z</time></trkpt>
<trkpt lat="49.10225253" lon="-1.13362500"><ele></ele><time>2014-7-4T23:22:5Z</time></trkpt>
<trkpt lat="49.10225630" lon="-1.13368870"><ele></ele><time>2014-7-4T23:22:8Z</time></trkpt>
<trkpt lat="49.10235453" lon="-1.13388450"><ele></ele><time>2014-7-4T23:22:11Z</time></trkpt>
<trkpt lat="49.10233869" lon="-1.13408349"><ele></ele><time>2014-7-4T23:22:14Z</time></trkpt>
<trkpt lat="49.10223149" lon="-1.13436009"><ele></ele><time>2014-7-4T23:22:17Z</time></trkpt>
<trkpt lat="49.10210920" lon="-1.13465119"><ele></ele><time>2014-7-4T23:22:20Z</time></trkpt>
<trkpt lat="49.10208128" lon="-1.13490315"><ele></ele><time>2014-7-4T23:22:23Z</time></trkpt>
<trkpt lat="49.10216334" lon="-1.13506828"><ele></ele><time>2014-7-4T23:22:26Z</time></trkpt>
<trkpt lat="49.10229393" lon="-1.13520599"><ele></ele><time>2014-7-4T23:22:29Z</time></trkpt>
<trkpt lat="49.10240659" lon="-1.13538436"><ele></ele><time>2014-7-4T23:22:32Z</time></trkpt>
<trkpt lat="49.10243693" lon="-1.13560346"><ele></ele><time>2014-7-4T23:22:35Z</time></trkpt>
<trkpt lat="49.10242234" lon="-1.13586145"><ele></ele><time>2014-7-4T23:22:38Z</time></trkpt>
<trkpt lat="49.10237884" lon="-1.13616253"><ele></ele><time>2014-7-4T23:22:41Z</time></trkpt>
<trkpt lat="49.10231019" lon="-1.13654248"><ele></ele><time>2014-7-4T23:22:44Z</time></trkpt>
<trkpt lat="49.10225688" lon="-1.13687089"><ele></ele><time>2014-7-4T23:22:47Z</time></trkpt>
<trkpt lat="49.10217969" lon="-1.13730289"><ele></ele><time>2014-7-4T23:22:50Z</time></trkpt>
<trkpt lat="49.10210165" lon="-1.13767228"><ele></ele><time>2014-7-4T23:22:53Z</time></trkpt>
<trkpt lat="49.10206930" lon="-1.13788912"><ele></ele><time>2014-7-4T23:22:56Z</time></trkpt>
<trkpt lat="49.10216619" lon="-1.13799976"><ele></ele><time>2014-7-4T23:22:59Z</time></trkpt>
<trkpt lat="49.10246249" lon="-1.13823127"><ele></ele><time>2014-7-4T23:23:2Z</time></trkpt>
<trkpt lat="49.10266005" lon="-1.13841106"><ele></ele><time>2014-7-4T23:23:5Z</time></trkpt>
<trkpt lat="49.10279148" lon="-1.13852690"><ele></ele><time>2014-7-4T23:23:8Z</time></trkpt>
<trkpt lat="49.10298016" lon="-1.13870217"><ele></ele><time>2014-7-4T23:23:11Z</time></trkpt>
<trkpt lat="49.10312902" lon="-1.13883778"><ele></ele><time>2014-7-4T23:23:14Z</time></trkpt>
<trkpt lat="49.10330747" lon="-1.13900249"><ele></ele><time>2014-7-4T23:23:17Z</time></trkpt>
<trkpt lat="49.10341308" lon="-1.13909553"><ele></ele><time>2014-7-4T23:23:20Z</time></trkpt>
<trkpt lat="49.10362867" lon="-1.13927289"><ele></ele><time>2014-7-4T23:23:23Z</time></trkpt>
<trkpt lat="49.10380125" lon="-1.13942435"><ele></ele><time>2014-7-4T23:23:26Z</time></trkpt>
<trkpt lat="49.10391768" lon="-1.13951010"><ele></ele><time>2014-7-4T23:23:29Z</time></trkpt>
<trkpt lat="49.10413192" lon="-1.13968268"><ele></ele><time>2014-7-4T23:23:32Z</time></trkpt>
<trkpt lat="49.10437122" lon="-1.13987823"><ele></ele><time>2014-7-4T23:23:35Z</time></trkpt>
<trkpt lat="49.10461522" lon="-1.14007504"><ele></ele><time>2014-7-4T23:23:38Z</time></trkpt>
<trkpt lat="49.10489308" lon="-1.14027704"><ele></ele><time>2014-7-4T23:23:41Z</time></trkpt>
<trkpt lat="49.10491303" lon="-1.14030277"><ele></ele><time>2014-7-4T23:23:44Z</time></trkpt>
<trkpt lat="49.10492099" lon="-1.14044912"><ele></ele><time>2014-7-4T23:23:47Z</time></trkpt>
<trkpt lat="49.10484019" lon="-1.14067803"><ele></ele><time>2014-7-4T23:23:50Z</time></trkpt>
<trkpt lat="49.10477280" lon="-1.14085556"><ele></ele><time>2014-7-4T23:23:53Z</time></trkpt>
<trkpt lat="49.10470080" lon="-1.14110408"><ele></ele><time>2014-7-4T23:23:56Z</time></trkpt>
<trkpt lat="49.10463768" lon="-1.14134397"><ele></ele><time>2014-7-4T23:23:59Z</time></trkpt>
<trkpt lat="49.10458529" lon="-1.14155277"><ele></ele><time>2014-7-4T23:24:2Z</time></trkpt>
<trkpt lat="49.10451748" lon="-1.14182778"><ele></ele><time>2014-7-4T23:24:5Z</time></trkpt>
<trkpt lat="49.10445127" lon="-1.14204453"><ele></ele><time>2014-7-4T23:24:8Z</time></trkpt>
<trkpt lat="49.10441807" lon="-1.14224369"><ele></ele><time>2014-7-4T23:24:11Z</time></trkpt>
<trkpt lat="49.10440693" lon="-1.14228752"><ele></ele><time>2014-7-4T23:24:14Z</time></trkpt>
<trkpt lat="49.10429444" lon="-1.14271056"><ele></ele><time>2014-7-4T23:24:17Z</time></trkpt>
<trkpt lat="49.10421322" lon="-1.14300384"><ele></ele><time>2014-7-4T23:24:20Z</time></trkpt>
<trkpt lat="49.10413284" lon="-1.14329369"><ele></ele><time>2014-7-4T23:24:23Z</time></trkpt>
<trkpt lat="49.10402563" lon="-1.14365646"><ele></ele><time>2014-7-4T23:24:26Z</time></trkpt>
<trkpt lat="49.10395858" lon="-1.14393365"><ele></ele><time>2014-7-4T23:24:29Z</time></trkpt>
<trkpt lat="49.10391214" lon="-1.14411746"><ele></ele><time>2014-7-4T23:24:32Z</time></trkpt>
<trkpt lat="49.10385808" lon="-1.14432139"><ele></ele><time>2014-7-4T23:24:35Z</time></trkpt>
<trkpt lat="49.10378030" lon="-1.14462825"><ele></ele><time>2014-7-4T23:24:38Z</time></trkpt>
<trkpt lat="49.10369916" lon="-1.14489874"><ele></ele><time>2014-7-4T23:24:41Z</time></trkpt>
<trkpt lat="49.10363277" lon="-1.14514818"><ele></ele><time>2014-7-4T23:24:44Z</time></trkpt>
<trkpt lat="49.10356153" lon="-1.14537818"><ele></ele><time>2014-7-4T23:24:47Z</time></trkpt>
<trkpt lat="49.10349154" lon="-1.14562595"><ele></ele><time>2014-7-4T23:24:50Z</time></trkpt>
<trkpt lat="49.10342683" lon="-1.14582804"><ele></ele><time>2014-7-4T23:24:53Z</time></trkpt>
<trkpt lat="49.10331879" lon="-1.14603935"><ele></ele><time>2014-7-4T23:24:56Z</time></trkpt>
<trkpt lat="49.10320982" lon="-1.14620112"><ele></ele><time>2014-7-4T23:24:59Z</time></trkpt>
<trkpt lat="49.10311712" lon="-1.14627882"><ele></ele><time>2014-7-4T23:25:2Z</time></trkpt>
<trkpt lat="49.10299768" lon="-1.14643556"><ele></ele><time>2014-7-4T23:25:5Z</time></trkpt>
<trkpt lat="49.10285552" lon="-1.14661225"><ele></ele><time>2014-7-4T23:25:8Z</time></trkpt>
<trkpt lat="49.10273893" lon="-1.14677017"><ele></ele><time>2014-7-4T23:25:11Z</time></trkpt>
<trkpt lat="49.10257095" lon="-1.14701106"><ele></ele><time>2014-7-4T23:25:14Z</time></trkpt>
<trkpt lat="49.10237767" lon="-1.14727543"><ele></ele><time>2014-7-4T23:25:17Z</time></trkpt>
<trkpt lat="49.10212453" lon="-1.14764792"><ele></ele><time>2014-7-4T23:25:20Z</time></trkpt>
<trkpt lat="49.10196587" lon="-1.14798403"><ele></ele><time>2014-7-4T23:25:23Z</time></trkpt>
<trkpt lat="49.10173528" lon="-1.14846976"><ele></ele><time>2014-7-4T23:25:26Z</time></trkpt>
<trkpt lat="49.10154987" lon="-1.14892926"><ele></ele><time>2014-7-4T23:25:29Z</time></trkpt>
<trkpt lat="49.10153302" lon="-1.14898467"><ele></ele><time>2014-7-4T23:25:32Z</time></trkpt>
<trkpt lat="49.10143512" lon="-1.14937518"><ele></ele><time>2014-7-4T23:25:35Z</time></trkpt>
<trkpt lat="49.10141484" lon="-1.14942396"><ele></ele><time>2014-7-4T23:25:38Z</time></trkpt>
<trkpt lat="49.10128986" lon="-1.14948766"><ele></ele><time>2014-7-4T23:25:41Z</time></trkpt>
<trkpt lat="49.10090547" lon="-1.14942463"><ele></ele><time>2014-7-4T23:25:44Z</time></trkpt>
<trkpt lat="49.10057782" lon="-1.14936512"><ele></ele><time>2014-7-4T23:25:47Z</time></trkpt>
<trkpt lat="49.10037808" lon="-1.14933754"><ele></ele><time>2014-7-4T23:25:50Z</time></trkpt>
<trkpt lat="49.10012553" lon="-1.14931743"><ele></ele><time>2014-7-4T23:25:53Z</time></trkpt>
<trkpt lat="49.09988363" lon="-1.14927158"><ele></ele><time>2014-7-4T23:25:56Z</time></trkpt>
<trkpt lat="49.09984415" lon="-1.14926387"><ele></ele><time>2014-7-4T23:25:59Z</time></trkpt>
<trkpt lat="49.09967928" lon="-1.14913797"><ele></ele><time>2014-7-4T23:26:2Z</time></trkpt>
<trkpt lat="49.09931408" lon="-1.14866096"><ele></ele><time>2014-7-4T23:26:5Z</time></trkpt>
<trkpt lat="49.09899758" lon="-1.14824245"><ele></ele><time>2014-7-4T23:26:8Z</time></trkpt>
<trkpt lat="49.09875962" lon="-1.14790684"><ele></ele><time>2014-7-4T23:26:11Z</time></trkpt>
<trkpt lat="49.09872307" lon="-1.14785386"><ele></ele><time>2014-7-4T23:26:14Z</time></trkpt>
<trkpt lat="49.09855837" lon="-1.14779217"><ele></ele><time>2014-7-4T23:26:17Z</time></trkpt>
<trkpt lat="49.09852853" lon="-1.14783056"><ele></ele><time>2014-7-4T23:26:20Z</time></trkpt>
<trkpt lat="49.09826894" lon="-1.14823172"><ele></ele><time>2014-7-4T23:26:23Z</time></trkpt>
<trkpt lat="49.09819024" lon="-1.14838226"><ele></ele><time>2014-7-4T23:26:26Z</time></trkpt>
<trkpt lat="49.09812964" lon="-1.14850799"><ele></ele><time>2014-7-4T23:26:29Z</time></trkpt>
<trkpt lat="49.09805118" lon="-1.14864268"><ele></ele><time>2014-7-4T23:26:32Z</time></trkpt>
<trkpt lat="49.09800106" lon="-1.14877076"><ele></ele><time>2014-7-4T23:26:35Z</time></trkpt>
<trkpt lat="49.09799360" lon="-1.14878048"><ele></ele><time>2014-7-4T23:26:38Z</time></trkpt>
<trkpt lat="49.09794138" lon="-1.14884133"><ele></ele><time>2014-7-4T23:26:41Z</time></trkpt>
<trkpt lat="49.09786468" lon="-1.14893496"><ele></ele><time>2014-7-4T23:26:44Z</time></trkpt>
<trkpt lat="49.09781573" lon="-1.14903429"><ele></ele><time>2014-7-4T23:26:47Z</time></trkpt>
<trkpt lat="49.09779553" lon="-1.14908055"><ele></ele><time>2014-7-4T23:26:50Z</time></trkpt>
<trkpt lat="49.09771146" lon="-1.14921743"><ele></ele><time>2014-7-4T23:26:53Z</time></trkpt>
<trkpt lat="49.09757936" lon="-1.14942002"><ele></ele><time>2014-7-4T23:26:56Z</time></trkpt>
<trkpt lat="49.09743343" lon="-1.14964692"><ele></ele><time>2014-7-4T23:26:59Z</time></trkpt>
<trkpt lat="49.09731165" lon="-1.14983283"><ele></ele><time>2014-7-4T23:27:2Z</time></trkpt>
<trkpt lat="49.09719296" lon="-1.15001187"><ele></ele><time>2014-7-4T23:27:5Z</time></trkpt>
<trkpt lat="49.09703873" lon="-1.15022242"><ele></ele><time>2014-7-4T23:27:8Z</time></trkpt>
<trkpt lat="49.09689934" lon="-1.15041914"><ele></ele><time>2014-7-4T23:27:11Z</time></trkpt>
<trkpt lat="49.09683522" lon="-1.15049927"><ele></ele><time>2014-7-4T23:27:14Z</time></trkpt>
<trkpt lat="49.09674796" lon="-1.15054697"><ele></ele><time>2014-7-4T23:27:17Z</time></trkpt>
<trkpt lat="49.09670689" lon="-1.15054638"><ele></ele><time>2014-7-4T23:27:20Z</time></trkpt>
<trkpt lat="49.09659248" lon="-1.15065744"><ele></ele><time>2014-7-4T23:27:23Z</time></trkpt>
<trkpt lat="49.09642995" lon="-1.15106975"><ele></ele><time>2014-7-4T23:27:26Z</time></trkpt>
<trkpt lat="49.09628972" lon="-1.15152472"><ele></ele><time>2014-7-4T23:27:29Z</time></trkpt>
<trkpt lat="49.09616886" lon="-1.15201984"><ele></ele><time>2014-7-4T23:27:32Z</time></trkpt>
<trkpt lat="49.09611530" lon="-1.15230038"><ele></ele><time>2014-7-4T23:27:35Z</time></trkpt>
<trkpt lat="49.09603382" lon="-1.15279642"><ele></ele><time>2014-7-4T23:27:38Z</time></trkpt>
<trkpt lat="49.09596518" lon="-1.15331744"><ele></ele><time>2014-7-4T23:27:41Z</time></trkpt>
<trkpt lat="49.09589795" lon="-1.15402428"><ele></ele><time>2014-7-4T23:27:44Z</time></trkpt>
<trkpt lat="49.09584054" lon="-1.15456458"><ele></ele><time>2014-7-4T23:27:47Z</time></trkpt>
<trkpt lat="49.09580047" lon="-1.15483574"><ele></ele><time>2014-7-4T23:27:50Z</time></trkpt>
<trkpt lat="49.09575169" lon="-1.15528459"><ele></ele><time>2014-7-4T23:27:53Z</time></trkpt>
<trkpt lat="49.09572110" lon="-1.15545290"><ele></ele><time>2014-7-4T23:27:56Z</time></trkpt>
<trkpt lat="49.09555798" lon="-1.15588658"><ele></ele><time>2014-7-4T23:27:59Z</time></trkpt>
<trkpt lat="49.09545086" lon="-1.15620869"><ele></ele><time>2014-7-4T23:28:2Z</time></trkpt>
<trkpt lat="49.09537836" lon="-1.15672544"><ele></ele><time>2014-7-4T23:28:5Z</time></trkpt>
<trkpt lat="49.09535849" lon="-1.15757863"><ele></ele><time>2014-7-4T23:28:8Z</time></trkpt>
<trkpt lat="49.09527208" lon="-1.15804324"><ele></ele><time>2014-7-4T23:28:11Z</time></trkpt>
<trkpt lat="49.09518658" lon="-1.15842336"><ele></ele><time>2014-7-4T23:28:14Z</time></trkpt>
<trkpt lat="49.09502624" lon="-1.15885997"><ele></ele><time>2014-7-4T23:28:17Z</time></trkpt>
<trkpt lat="49.09495499" lon="-1.15902417"><ele></ele><time>2014-7-4T23:28:20Z</time></trkpt>
<trkpt lat="49.09484904" lon="-1.15925543"><ele></ele><time>2014-7-4T23:28:23Z</time></trkpt>
<trkpt lat="49.09474863" lon="-1.15961376"><ele></ele><time>2014-7-4T23:28:26Z</time></trkpt>
<trkpt lat="49.09451678" lon="-1.16006403"><ele></ele><time>2014-7-4T23:28:29Z</time></trkpt>
<trkpt lat="49.09446264" lon="-1.16014048"><ele></ele><time>2014-7-4T23:28:32Z</time></trkpt>
<trkpt lat="49.09422669" lon="-1.16025774"><ele></ele><time>2014-7-4T23:28:35Z</time></trkpt>
<trkpt lat="49.09409249" lon="-1.16022849"><ele></ele><time>2014-7-4T23:28:38Z</time></trkpt>
<trkpt lat="49.09399979" lon="-1.16023938"><ele></ele><time>2014-7-4T23:28:41Z</time></trkpt>
<trkpt lat="49.09392645" lon="-1.16022882"><ele></ele><time>2014-7-4T23:28:44Z</time></trkpt>
<trkpt lat="49.09389937" lon="-1.16021876"><ele></ele><time>2014-7-4T23:28:47Z</time></trkpt>
<trkpt lat="49.09384263" lon="-1.16020644"><ele></ele><time>2014-7-4T23:28:50Z</time></trkpt>
<trkpt lat="49.09378085" lon="-1.16019077"><ele></ele><time>2014-7-4T23:28:53Z</time></trkpt>
<trkpt lat="49.09354482" lon="-1.16018347"><ele></ele><time>2014-7-4T23:28:56Z</time></trkpt>
<trkpt lat="49.09335312" lon="-1.16030836"><ele></ele><time>2014-7-4T23:28:59Z</time></trkpt>
<trkpt lat="49.09320720" lon="-1.16052135"><ele></ele><time>2014-7-4T23:29:2Z</time></trkpt>
<trkpt lat="49.09310452" lon="-1.16074456"><ele></ele><time>2014-7-4T23:29:5Z</time></trkpt>
<trkpt lat="49.09301592" lon="-1.16095813"><ele></ele><time>2014-7-4T23:29:8Z</time></trkpt>
<trkpt lat="49.09288198" lon="-1.16113675"><ele></ele><time>2014-7-4T23:29:11Z</time></trkpt>
<trkpt lat="49.09258593" lon="-1.16144277"><ele></ele><time>2014-7-4T23:29:14Z</time></trkpt>
<trkpt lat="49.09231578" lon="-1.16173865"><ele></ele><time>2014-7-4T23:29:17Z</time></trkpt>
<trkpt lat="49.09211285" lon="-1.16198692"><ele></ele><time>2014-7-4T23:29:20Z</time></trkpt>
<trkpt lat="49.09190834" lon="-1.16220653"><ele></ele><time>2014-7-4T23:29:23Z</time></trkpt>
<trkpt lat="49.09175889" lon="-1.16239915"><ele></ele><time>2014-7-4T23:29:26Z</time></trkpt>
<trkpt lat="49.09153400" lon="-1.16267667"><ele></ele><time>2014-7-4T23:29:29Z</time></trkpt>
<trkpt lat="49.09135714" lon="-1.16284984"><ele></ele><time>2014-7-4T23:29:32Z</time></trkpt>
<trkpt lat="49.09123636" lon="-1.16295319"><ele></ele><time>2014-7-4T23:29:35Z</time></trkpt>
<trkpt lat="49.09099923" lon="-1.16308554"><ele></ele><time>2014-7-4T23:29:38Z</time></trkpt>
<trkpt lat="49.09086169" lon="-1.16313952"><ele></ele><time>2014-7-4T23:29:41Z</time></trkpt>
<trkpt lat="49.09069330" lon="-1.16318177"><ele></ele><time>2014-7-4T23:29:44Z</time></trkpt>
<trkpt lat="49.09038132" lon="-1.16316299"><ele></ele><time>2014-7-4T23:29:47Z</time></trkpt>
<trkpt lat="49.09022776" lon="-1.16326718"><ele></ele><time>2014-7-4T23:29:50Z</time></trkpt>
<trkpt lat="49.09021494" lon="-1.16331386"><ele></ele><time>2014-7-4T23:29:53Z</time></trkpt>
<trkpt lat="49.09020019" lon="-1.16343867"><ele></ele><time>2014-7-4T23:29:56Z</time></trkpt>
<trkpt lat="49.09018770" lon="-1.16391979"><ele></ele><time>2014-7-4T23:29:59Z</time></trkpt>
<trkpt lat="49.09020513" lon="-1.16404837"><ele></ele><time>2014-7-4T23:30:2Z</time></trkpt>
<trkpt lat="49.09013447" lon="-1.16453653"><ele></ele><time>2014-7-4T23:30:5Z</time></trkpt>
<trkpt lat="49.09001897" lon="-1.16461105"><ele></ele><time>2014-7-4T23:30:8Z</time></trkpt>
<trkpt lat="49.08986776" lon="-1.16461859"><ele></ele><time>2014-7-4T23:30:11Z</time></trkpt>
<trkpt lat="49.08983222" lon="-1.16460929"><ele></ele><time>2014-7-4T23:30:14Z</time></trkpt>
<trkpt lat="49.08976123" lon="-1.16458255"><ele></ele><time>2014-7-4T23:30:17Z</time></trkpt>
<trkpt lat="49.08963374" lon="-1.16462865"><ele></ele><time>2014-7-4T23:30:20Z</time></trkpt>
<trkpt lat="49.08956668" lon="-1.16474013"><ele></ele><time>2014-7-4T23:30:23Z</time></trkpt>
<trkpt lat="49.08955612" lon="-1.16477458"><ele></ele><time>2014-7-4T23:30:26Z</time></trkpt>
<trkpt lat="49.08951329" lon="-1.16492336"><ele></ele><time>2014-7-4T23:30:29Z</time></trkpt>
<trkpt lat="49.08944917" lon="-1.16510474"><ele></ele><time>2014-7-4T23:30:32Z</time></trkpt>
<trkpt lat="49.08934716" lon="-1.16525629"><ele></ele><time>2014-7-4T23:30:35Z</time></trkpt>
<trkpt lat="49.08930827" lon="-1.16522963"><ele></ele><time>2014-7-4T23:30:38Z</time></trkpt>
<trkpt lat="49.08926502" lon="-1.16514900"><ele></ele><time>2014-7-4T23:30:41Z</time></trkpt>
<trkpt lat="49.08926509" lon="-1.16514889"><ele></ele><time>2014-7-4T23:30:44Z</time></trkpt>
<trkpt lat="49.08926531" lon="-1.16514858"><ele></ele><time>2014-7-4T23:30:47Z</time></trkpt>
<trkpt lat="49.08926538" lon="-1.16514848"><ele></ele><time>2014-7-4T23:30:50Z</time></trkpt>
<trkpt lat="49.08926589" lon="-1.16514775"><ele></ele><time>2014-7-4T23:30:53Z</time></trkpt>
<trkpt lat="49.08926601" lon="-1.16514758"><ele></ele><time>2014-7-4T23:30:56Z</time></trkpt>
<trkpt lat="49.08926662" lon="-1.16514671"><ele></ele><time>2014-7-4T23:30:59Z</time></trkpt>
<trkpt lat="49.08926664" lon="-1.16514667"><ele></ele><time>2014-7-4T23:31:2Z</time></trkpt>
<trkpt lat="49.08926669" lon="-1.16514660"><ele></ele><time>2014-7-4T23:31:5Z</time></trkpt>
<trkpt lat="49.08926689" lon="-1.16514631"><ele></ele><time>2014-7-4T23:31:8Z</time></trkpt>
<trkpt lat="49.08926694" lon="-1.16514625"><ele></ele><time>2014-7-4T23:31:11Z</time></trkpt>
<trkpt lat="49.08926699" lon="-1.16514617"><ele></ele><time>2014-7-4T23:31:14Z</time></trkpt>
<trkpt lat="49.08926946" lon="-1.16514263"><ele></ele><time>2014-7-4T23:31:17Z</time></trkpt>
<trkpt lat="49.08926766" lon="-1.16514043"><ele></ele><time>2014-7-4T23:31:20Z</time></trkpt>
<trkpt lat="49.08924740" lon="-1.16511572"><ele></ele><time>2014-7-4T23:31:23Z</time></trkpt>
<trkpt lat="49.08924650" lon="-1.16511462"><ele></ele><time>2014-7-4T23:31:26Z</time></trkpt>
<trkpt lat="49.08922850" lon="-1.16509265"><ele></ele><time>2014-7-4T23:31:29Z</time></trkpt>
<trkpt lat="49.08922760" lon="-1.16509155"><ele></ele><time>2014-7-4T23:31:32Z</time></trkpt>
<trkpt lat="49.08921859" lon="-1.16508057"><ele></ele><time>2014-7-4T23:31:35Z</time></trkpt>
<trkpt lat="49.08921679" lon="-1.16507837"><ele></ele><time>2014-7-4T23:31:38Z</time></trkpt>
<trkpt lat="49.08920689" lon="-1.16506629"><ele></ele><time>2014-7-4T23:31:41Z</time></trkpt>
<trkpt lat="49.08920509" lon="-1.16506409"><ele></ele><time>2014-7-4T23:31:44Z</time></trkpt>
<trkpt lat="49.08913535" lon="-1.16502168"><ele></ele><time>2014-7-4T23:31:47Z</time></trkpt>
<trkpt lat="49.08892614" lon="-1.16502863"><ele></ele><time>2014-7-4T23:31:50Z</time></trkpt>
<trkpt lat="49.08864258" lon="-1.16511430"><ele></ele><time>2014-7-4T23:31:53Z</time></trkpt>
<trkpt lat="49.08850336" lon="-1.16516693"><ele></ele><time>2014-7-4T23:31:56Z</time></trkpt>
<trkpt lat="49.08836857" lon="-1.16524832"><ele></ele><time>2014-7-4T23:31:59Z</time></trkpt>
<trkpt lat="49.08812508" lon="-1.16558628"><ele></ele><time>2014-7-4T23:32:2Z</time></trkpt>
<trkpt lat="49.08805668" lon="-1.16571176"><ele></ele><time>2014-7-4T23:32:5Z</time></trkpt>
<trkpt lat="49.08804574" lon="-1.16572887"><ele></ele><time>2014-7-4T23:32:8Z</time></trkpt>
<trkpt lat="49.08804136" lon="-1.16573571"><ele></ele><time>2014-7-4T23:32:11Z</time></trkpt>
<trkpt lat="49.08803041" lon="-1.16575281"><ele></ele><time>2014-7-4T23:32:14Z</time></trkpt>
<trkpt lat="49.08802165" lon="-1.16576650"><ele></ele><time>2014-7-4T23:32:17Z</time></trkpt>
<trkpt lat="49.08801508" lon="-1.16577676"><ele></ele><time>2014-7-4T23:32:20Z</time></trkpt>
<trkpt lat="49.08798662" lon="-1.16582124"><ele></ele><time>2014-7-4T23:32:23Z</time></trkpt>
<trkpt lat="49.08798443" lon="-1.16582466"><ele></ele><time>2014-7-4T23:32:26Z</time></trkpt>
<trkpt lat="49.08790304" lon="-1.16594352"><ele></ele><time>2014-7-4T23:32:29Z</time></trkpt>
<trkpt lat="49.08785988" lon="-1.16598685"><ele></ele><time>2014-7-4T23:32:32Z</time></trkpt>
<trkpt lat="49.08781679" lon="-1.16607402"><ele></ele><time>2014-7-4T23:32:35Z</time></trkpt>
<trkpt lat="49.08781114" lon="-1.16607893"><ele></ele><time>2014-7-4T23:32:38Z</time></trkpt>
<trkpt lat="49.08780548" lon="-1.16608383"><ele></ele><time>2014-7-4T23:32:41Z</time></trkpt>
<trkpt lat="49.08776449" lon="-1.16613546"><ele></ele><time>2014-7-4T23:32:44Z</time></trkpt>
<trkpt lat="49.08761554" lon="-1.16630562"><ele></ele><time>2014-7-4T23:32:47Z</time></trkpt>
<trkpt lat="49.08753189" lon="-1.16641056"><ele></ele><time>2014-7-4T23:32:50Z</time></trkpt>
<trkpt lat="49.08742058" lon="-1.16652338"><ele></ele><time>2014-7-4T23:32:53Z</time></trkpt>
<trkpt lat="49.08728706" lon="-1.16665422"><ele></ele><time>2014-7-4T23:32:56Z</time></trkpt>
<trkpt lat="49.08717684" lon="-1.16671725"><ele></ele><time>2014-7-4T23:32:59Z</time></trkpt>
<trkpt lat="49.08702076" lon="-1.16678489"><ele></ele><time>2014-7-4T23:33:2Z</time></trkpt>
<trkpt lat="49.08683670" lon="-1.16688799"><ele></ele><time>2014-7-4T23:33:5Z</time></trkpt>
<trkpt lat="49.08667836" lon="-1.16701129"><ele></ele><time>2014-7-4T23:33:8Z</time></trkpt>
<trkpt lat="49.08655289" lon="-1.16710994"><ele></ele><time>2014-7-4T23:33:11Z</time></trkpt>
<trkpt lat="49.08638659" lon="-1.16723173"><ele></ele><time>2014-7-4T23:33:14Z</time></trkpt>
<trkpt lat="49.08623203" lon="-1.16734506"><ele></ele><time>2014-7-4T23:33:17Z</time></trkpt>
<trkpt lat="49.08611954" lon="-1.16745075"><ele></ele><time>2014-7-4T23:33:20Z</time></trkpt>
<trkpt lat="49.08602365" lon="-1.16752745"><ele></ele><time>2014-7-4T23:33:23Z</time></trkpt>
<trkpt lat="49.08591452" lon="-1.16761135"><ele></ele><time>2014-7-4T23:33:26Z</time></trkpt>
<trkpt lat="49.08576675" lon="-1.16774026"><ele></ele><time>2014-7-4T23:33:29Z</time></trkpt>
<trkpt lat="49.08562736" lon="-1.16792358"><ele></ele><time>2014-7-4T23:33:32Z</time></trkpt>
<trkpt lat="49.08551965" lon="-1.16807755"><ele></ele><time>2014-7-4T23:33:35Z</time></trkpt>
<trkpt lat="49.08545737" lon="-1.16816288"><ele></ele><time>2014-7-4T23:33:38Z</time></trkpt>
<trkpt lat="49.08535285" lon="-1.16833236"><ele></ele><time>2014-7-4T23:33:41Z</time></trkpt>
<trkpt lat="49.08522888" lon="-1.16836874"><ele></ele><time>2014-7-4T23:33:44Z</time></trkpt>
<trkpt lat="49.08507356" lon="-1.16835189"><ele></ele><time>2014-7-4T23:33:47Z</time></trkpt>
<trkpt lat="49.08489008" lon="-1.16833488"><ele></ele><time>2014-7-4T23:33:50Z</time></trkpt>
<trkpt lat="49.08467752" lon="-1.16831937"><ele></ele><time>2014-7-4T23:33:53Z</time></trkpt>
<trkpt lat="49.08447702" lon="-1.16830814"><ele></ele><time>2014-7-4T23:33:56Z</time></trkpt>
<trkpt lat="49.08433747" lon="-1.16822658"><ele></ele><time>2014-7-4T23:33:59Z</time></trkpt>
<trkpt lat="49.08414896" lon="-1.16806925"><ele></ele><time>2014-7-4T23:34:2Z</time></trkpt>
<trkpt lat="49.08405424" lon="-1.16799415"><ele></ele><time>2014-7-4T23:34:5Z</time></trkpt>
<trkpt lat="49.08395072" lon="-1.16799926"><ele></ele><time>2014-7-4T23:34:8Z</time></trkpt>
<trkpt lat="49.08386515" lon="-1.16809012"><ele></ele><time>2014-7-4T23:34:11Z</time></trkpt>
<trkpt lat="49.08379189" lon="-1.16818023"><ele></ele><time>2014-7-4T23:34:14Z</time></trkpt>
<trkpt lat="49.08367219" lon="-1.16832825"><ele></ele><time>2014-7-4T23:34:17Z</time></trkpt>
<trkpt lat="49.08354538" lon="-1.16849606"><ele></ele><time>2014-7-4T23:34:20Z</time></trkpt>
<trkpt lat="49.08341277" lon="-1.16870360"><ele></ele><time>2014-7-4T23:34:23Z</time></trkpt>
<trkpt lat="49.08329325" lon="-1.16889898"><ele></ele><time>2014-7-4T23:34:26Z</time></trkpt>
<trkpt lat="49.08319627" lon="-1.16907097"><ele></ele><time>2014-7-4T23:34:29Z</time></trkpt>
<trkpt lat="49.08309736" lon="-1.16923065"><ele></ele><time>2014-7-4T23:34:32Z</time></trkpt>
<trkpt lat="49.08299418" lon="-1.16940583"><ele></ele><time>2014-7-4T23:34:35Z</time></trkpt>
<trkpt lat="49.08287843" lon="-1.16962376"><ele></ele><time>2014-7-4T23:34:38Z</time></trkpt>
<trkpt lat="49.08276720" lon="-1.16979592"><ele></ele><time>2014-7-4T23:34:41Z</time></trkpt>
<trkpt lat="49.08264114" lon="-1.17002827"><ele></ele><time>2014-7-4T23:34:44Z</time></trkpt>
<trkpt lat="49.08250476" lon="-1.17026045"><ele></ele><time>2014-7-4T23:34:47Z</time></trkpt>
<trkpt lat="49.08236889" lon="-1.17048408"><ele></ele><time>2014-7-4T23:34:50Z</time></trkpt>
<trkpt lat="49.08219798" lon="-1.17078574"><ele></ele><time>2014-7-4T23:34:53Z</time></trkpt>
<trkpt lat="49.08205968" lon="-1.17106235"><ele></ele><time>2014-7-4T23:34:56Z</time></trkpt>
<trkpt lat="49.08190185" lon="-1.17137977"><ele></ele><time>2014-7-4T23:34:59Z</time></trkpt>
<trkpt lat="49.08178015" lon="-1.17166802"><ele></ele><time>2014-7-4T23:35:2Z</time></trkpt>
<trkpt lat="49.08167504" lon="-1.17187204"><ele></ele><time>2014-7-4T23:35:5Z</time></trkpt>
<trkpt lat="49.08159558" lon="-1.17205719"><ele></ele><time>2014-7-4T23:35:8Z</time></trkpt>
<trkpt lat="49.08154998" lon="-1.17218242"><ele></ele><time>2014-7-4T23:35:11Z</time></trkpt>
<trkpt lat="49.08147790" lon="-1.17236942"><ele></ele><time>2014-7-4T23:35:14Z</time></trkpt>
<trkpt lat="49.08137430" lon="-1.17258995"><ele></ele><time>2014-7-4T23:35:17Z</time></trkpt>
<trkpt lat="49.08126365" lon="-1.17279438"><ele></ele><time>2014-7-4T23:35:20Z</time></trkpt>
<trkpt lat="49.08116743" lon="-1.17301089"><ele></ele><time>2014-7-4T23:35:23Z</time></trkpt>
<trkpt lat="49.08108914" lon="-1.17318724"><ele></ele><time>2014-7-4T23:35:26Z</time></trkpt>
<trkpt lat="49.08097045" lon="-1.17344566"><ele></ele><time>2014-7-4T23:35:29Z</time></trkpt>
<trkpt lat="49.08084808" lon="-1.17370784"><ele></ele><time>2014-7-4T23:35:32Z</time></trkpt>
<trkpt lat="49.08076703" lon="-1.17389199"><ele></ele><time>2014-7-4T23:35:35Z</time></trkpt>
<trkpt lat="49.08068975" lon="-1.17408394"><ele></ele><time>2014-7-4T23:35:38Z</time></trkpt>
<trkpt lat="49.08059662" lon="-1.17430715"><ele></ele><time>2014-7-4T23:35:41Z</time></trkpt>
<trkpt lat="49.08053057" lon="-1.17454343"><ele></ele><time>2014-7-4T23:35:44Z</time></trkpt>
<trkpt lat="49.08045346" lon="-1.17476036"><ele></ele><time>2014-7-4T23:35:47Z</time></trkpt>
<trkpt lat="49.08037408" lon="-1.17493688"><ele></ele><time>2014-7-4T23:35:50Z</time></trkpt>
<trkpt lat="49.08022924" lon="-1.17510234"><ele></ele><time>2014-7-4T23:35:53Z</time></trkpt>
<trkpt lat="49.08013470" lon="-1.17520929"><ele></ele><time>2014-7-4T23:35:56Z</time></trkpt>
<trkpt lat="49.08011676" lon="-1.17525665"><ele></ele><time>2014-7-4T23:35:59Z</time></trkpt>
<trkpt lat="49.08006513" lon="-1.17541700"><ele></ele><time>2014-7-4T23:36:2Z</time></trkpt>
<trkpt lat="49.08004719" lon="-1.17545723"><ele></ele><time>2014-7-4T23:36:5Z</time></trkpt>
<trkpt lat="49.07998784" lon="-1.17558916"><ele></ele><time>2014-7-4T23:36:8Z</time></trkpt>
<trkpt lat="49.07990889" lon="-1.17566678"><ele></ele><time>2014-7-4T23:36:11Z</time></trkpt>
<trkpt lat="49.07980612" lon="-1.17568907"><ele></ele><time>2014-7-4T23:36:14Z</time></trkpt>
<trkpt lat="49.07967629" lon="-1.17573107"><ele></ele><time>2014-7-4T23:36:17Z</time></trkpt>
<trkpt lat="49.07956808" lon="-1.17574917"><ele></ele><time>2014-7-4T23:36:20Z</time></trkpt>
<trkpt lat="49.07950915" lon="-1.17576250"><ele></ele><time>2014-7-4T23:36:23Z</time></trkpt>
<trkpt lat="49.07942508" lon="-1.17586216"><ele></ele><time>2014-7-4T23:36:26Z</time></trkpt>
<trkpt lat="49.07926859" lon="-1.17609677"><ele></ele><time>2014-7-4T23:36:29Z</time></trkpt>
<trkpt lat="49.07919056" lon="-1.17619576"><ele></ele><time>2014-7-4T23:36:32Z</time></trkpt>
<trkpt lat="49.07909618" lon="-1.17610959"><ele></ele><time>2014-7-4T23:36:35Z</time></trkpt>
<trkpt lat="49.07904706" lon="-1.17602854"><ele></ele><time>2014-7-4T23:36:38Z</time></trkpt>
<trkpt lat="49.07892435" lon="-1.17590399"><ele></ele><time>2014-7-4T23:36:41Z</time></trkpt>
<trkpt lat="49.07875378" lon="-1.17588697"><ele></ele><time>2014-7-4T23:36:44Z</time></trkpt>
<trkpt lat="49.07865596" lon="-1.17578086"><ele></ele><time>2014-7-4T23:36:47Z</time></trkpt>
<trkpt lat="49.07855806" lon="-1.17567868"><ele></ele><time>2014-7-4T23:36:50Z</time></trkpt>
<trkpt lat="49.07846645" lon="-1.17578823"><ele></ele><time>2014-7-4T23:36:53Z</time></trkpt>
<trkpt lat="49.07842982" lon="-1.17608126"><ele></ele><time>2014-7-4T23:36:56Z</time></trkpt>
<trkpt lat="49.07841339" lon="-1.17624982"><ele></ele><time>2014-7-4T23:36:59Z</time></trkpt>
<trkpt lat="49.07833577" lon="-1.17658376"><ele></ele><time>2014-7-4T23:37:2Z</time></trkpt>
<trkpt lat="49.07830392" lon="-1.17668082"><ele></ele><time>2014-7-4T23:37:5Z</time></trkpt>
<trkpt lat="49.07822706" lon="-1.17685189"><ele></ele><time>2014-7-4T23:37:8Z</time></trkpt>
<trkpt lat="49.07820275" lon="-1.17689758"><ele></ele><time>2014-7-4T23:37:11Z</time></trkpt>
<trkpt lat="49.07817777" lon="-1.17696555"><ele></ele><time>2014-7-4T23:37:14Z</time></trkpt>
<trkpt lat="49.07813905" lon="-1.17701677"><ele></ele><time>2014-7-4T23:37:17Z</time></trkpt>
<trkpt lat="49.07813924" lon="-1.17701577"><ele></ele><time>2014-7-4T23:37:20Z</time></trkpt>
<trkpt lat="49.07814314" lon="-1.17699537"><ele></ele><time>2014-7-4T23:37:23Z</time></trkpt>
<trkpt lat="49.07814333" lon="-1.17699437"><ele></ele><time>2014-7-4T23:37:26Z</time></trkpt>
<trkpt lat="49.07814392" lon="-1.17699126"><ele></ele><time>2014-7-4T23:37:29Z</time></trkpt>
<trkpt lat="49.07814399" lon="-1.17699089"><ele></ele><time>2014-7-4T23:37:32Z</time></trkpt>
<trkpt lat="49.07815631" lon="-1.17692644"><ele></ele><time>2014-7-4T23:37:35Z</time></trkpt>
<trkpt lat="49.07815636" lon="-1.17692619"><ele></ele><time>2014-7-4T23:37:38Z</time></trkpt>
<trkpt lat="49.07815650" lon="-1.17692544"><ele></ele><time>2014-7-4T23:37:41Z</time></trkpt>
<trkpt lat="49.07815655" lon="-1.17692519"><ele></ele><time>2014-7-4T23:37:44Z</time></trkpt>
<trkpt lat="49.07815665" lon="-1.17692469"><ele></ele><time>2014-7-4T23:37:47Z</time></trkpt>
<trkpt lat="49.07815677" lon="-1.17692407"><ele></ele><time>2014-7-4T23:37:50Z</time></trkpt>
<trkpt lat="49.07815836" lon="-1.17691573"><ele></ele><time>2014-7-4T23:37:53Z</time></trkpt>
<trkpt lat="49.07815841" lon="-1.17691549"><ele></ele><time>2014-7-4T23:37:56Z</time></trkpt>
<trkpt lat="49.07815964" lon="-1.17690902"><ele></ele><time>2014-7-4T23:37:59Z</time></trkpt>
<trkpt lat="49.07815967" lon="-1.17690889"><ele></ele><time>2014-7-4T23:38:2Z</time></trkpt>
<trkpt lat="49.07816302" lon="-1.17688425"><ele></ele><time>2014-7-4T23:38:5Z</time></trkpt>
<trkpt lat="49.07818398" lon="-1.17672357"><ele></ele><time>2014-7-4T23:38:8Z</time></trkpt>
<trkpt lat="49.07819923" lon="-1.17666515"><ele></ele><time>2014-7-4T23:38:11Z</time></trkpt>
<trkpt lat="49.07820929" lon="-1.17660555"><ele></ele><time>2014-7-4T23:38:14Z</time></trkpt>
<trkpt lat="49.07821055" lon="-1.17657353"><ele></ele><time>2014-7-4T23:38:17Z</time></trkpt>
<trkpt lat="49.07821122" lon="-1.17646683"><ele></ele><time>2014-7-4T23:38:20Z</time></trkpt>
<trkpt lat="49.07825304" lon="-1.17615578"><ele></ele><time>2014-7-4T23:38:23Z</time></trkpt>
<trkpt lat="49.07827048" lon="-1.17605628"><ele></ele><time>2014-7-4T23:38:26Z</time></trkpt>
<trkpt lat="49.07820049" lon="-1.17594472"><ele></ele><time>2014-7-4T23:38:29Z</time></trkpt>
<trkpt lat="49.07798549" lon="-1.17584833"><ele></ele><time>2014-7-4T23:38:32Z</time></trkpt>
<trkpt lat="49.07785440" lon="-1.17578379"><ele></ele><time>2014-7-4T23:38:35Z</time></trkpt>
<trkpt lat="49.07765139" lon="-1.17567767"><ele></ele><time>2014-7-4T23:38:38Z</time></trkpt>
<trkpt lat="49.07731058" lon="-1.17550727"><ele></ele><time>2014-7-4T23:38:41Z</time></trkpt>
<trkpt lat="49.07701587" lon="-1.17536293"><ele></ele><time>2014-7-4T23:38:44Z</time></trkpt>
<trkpt lat="49.07670038" lon="-1.17522690"><ele></ele><time>2014-7-4T23:38:47Z</time></trkpt>
<trkpt lat="49.07645227" lon="-1.17514215"><ele></ele><time>2014-7-4T23:38:50Z</time></trkpt>
<trkpt lat="49.07636343" lon="-1.17522497"><ele></ele><time>2014-7-4T23:38:53Z</time></trkpt>
<trkpt lat="49.07628883" lon="-1.17554675"><ele></ele><time>2014-7-4T23:38:56Z</time></trkpt>
<trkpt lat="49.07618682" lon="-1.17630305"><ele></ele><time>2014-7-4T23:38:59Z</time></trkpt>
<trkpt lat="49.07617249" lon="-1.17639567"><ele></ele><time>2014-7-4T23:39:2Z</time></trkpt>
<trkpt lat="49.07610308" lon="-1.17709975"><ele></ele><time>2014-7-4T23:39:5Z</time></trkpt>
<trkpt lat="49.07600937" lon="-1.17789586"><ele></ele><time>2014-7-4T23:39:8Z</time></trkpt>
<trkpt lat="49.07591667" lon="-1.17871888"><ele></ele><time>2014-7-4T23:39:11Z</time></trkpt>
<trkpt lat="49.07577652" lon="-1.18000994"><ele></ele><time>2014-7-4T23:39:14Z</time></trkpt>
<trkpt lat="49.07570469" lon="-1.18065979"><ele></ele><time>2014-7-4T23:39:17Z</time></trkpt>
<trkpt lat="49.07568868" lon="-1.18077815"><ele></ele><time>2014-7-4T23:39:20Z</time></trkpt>
<trkpt lat="49.07562255" lon="-1.18110538"><ele></ele><time>2014-7-4T23:39:23Z</time></trkpt>
<trkpt lat="49.07545474" lon="-1.18143596"><ele></ele><time>2014-7-4T23:39:26Z</time></trkpt>
<trkpt lat="49.07539909" lon="-1.18150075"><ele></ele><time>2014-7-4T23:39:29Z</time></trkpt>
<trkpt lat="49.07490145" lon="-1.18194155"><ele></ele><time>2014-7-4T23:39:32Z</time></trkpt>
<trkpt lat="49.07483473" lon="-1.18199419"><ele></ele><time>2014-7-4T23:39:35Z</time></trkpt>
<trkpt lat="49.07411213" lon="-1.18256693"><ele></ele><time>2014-7-4T23:39:38Z</time></trkpt>
<trkpt lat="49.07366437" lon="-1.18303296"><ele></ele><time>2014-7-4T23:39:41Z</time></trkpt>
<trkpt lat="49.07337452" lon="-1.18349497"><ele></ele><time>2014-7-4T23:39:44Z</time></trkpt>
<trkpt lat="49.07311753" lon="-1.18406444"><ele></ele><time>2014-7-4T23:39:47Z</time></trkpt>
<trkpt lat="49.07287932" lon="-1.18481252"><ele></ele><time>2014-7-4T23:39:50Z</time></trkpt>
<trkpt lat="49.07260934" lon="-1.18568433"><ele></ele><time>2014-7-4T23:39:53Z</time></trkpt>
<trkpt lat="49.07239703" lon="-1.18635035"><ele></ele><time>2014-7-4T23:39:56Z</time></trkpt>
<trkpt lat="49.07218924" lon="-1.18699852"><ele></ele><time>2014-7-4T23:39:59Z</time></trkpt>
<trkpt lat="49.07212788" lon="-1.18719793"><ele></ele><time>2014-7-4T23:40:2Z</time></trkpt>
<trkpt lat="49.07204222" lon="-1.18746724"><ele></ele><time>2014-7-4T23:40:5Z</time></trkpt>
<trkpt lat="49.07180116" lon="-1.18811768"><ele></ele><time>2014-7-4T23:40:8Z</time></trkpt>
<trkpt lat="49.07155305" lon="-1.18858715"><ele></ele><time>2014-7-4T23:40:11Z</time></trkpt>
<trkpt lat="49.07140226" lon="-1.18879552"><ele></ele><time>2014-7-4T23:40:14Z</time></trkpt>
<trkpt lat="49.07130436" lon="-1.18900934"><ele></ele><time>2014-7-4T23:40:17Z</time></trkpt>
<trkpt lat="49.07138198" lon="-1.18910749"><ele></ele><time>2014-7-4T23:40:20Z</time></trkpt>
<trkpt lat="49.07172597" lon="-1.18942768"><ele></ele><time>2014-7-4T23:40:23Z</time></trkpt>
<trkpt lat="49.07202437" lon="-1.18987662"><ele></ele><time>2014-7-4T23:40:26Z</time></trkpt>
<trkpt lat="49.07212076" lon="-1.19002942"><ele></ele><time>2014-7-4T23:40:29Z</time></trkpt>
<trkpt lat="49.07230868" lon="-1.19024643"><ele></ele><time>2014-7-4T23:40:32Z</time></trkpt>
<trkpt lat="49.07233718" lon="-1.19028934"><ele></ele><time>2014-7-4T23:40:35Z</time></trkpt>
<trkpt lat="49.07232259" lon="-1.19044189"><ele></ele><time>2014-7-4T23:40:38Z</time></trkpt>
<trkpt lat="49.07229778" lon="-1.19048858"><ele></ele><time>2014-7-4T23:40:41Z</time></trkpt>
<trkpt lat="49.07223148" lon="-1.19070215"><ele></ele><time>2014-7-4T23:40:44Z</time></trkpt>
<trkpt lat="49.07227398" lon="-1.19085579"><ele></ele><time>2014-7-4T23:40:47Z</time></trkpt>
<trkpt lat="49.07229927" lon="-1.19093868"><ele></ele><time>2014-7-4T23:40:50Z</time></trkpt>
<trkpt lat="49.07230650" lon="-1.19096237"><ele></ele><time>2014-7-4T23:40:53Z</time></trkpt>
<trkpt lat="49.07233902" lon="-1.19106894"><ele></ele><time>2014-7-4T23:40:56Z</time></trkpt>
<trkpt lat="49.07234338" lon="-1.19119744"><ele></ele><time>2014-7-4T23:40:59Z</time></trkpt>
<trkpt lat="49.07230306" lon="-1.19126810"><ele></ele><time>2014-7-4T23:41:2Z</time></trkpt>
<trkpt lat="49.07222763" lon="-1.19141730"><ele></ele><time>2014-7-4T23:41:5Z</time></trkpt>
<trkpt lat="49.07212093" lon="-1.19161209"><ele></ele><time>2014-7-4T23:41:8Z</time></trkpt>
<trkpt lat="49.07205982" lon="-1.19173874"><ele></ele><time>2014-7-4T23:41:11Z</time></trkpt>
<trkpt lat="49.07197944" lon="-1.19195575"><ele></ele><time>2014-7-4T23:41:14Z</time></trkpt>
<trkpt lat="49.07192563" lon="-1.19220478"><ele></ele><time>2014-7-4T23:41:17Z</time></trkpt>
<trkpt lat="49.07186494" lon="-1.19235959"><ele></ele><time>2014-7-4T23:41:20Z</time></trkpt>
<trkpt lat="49.07180962" lon="-1.19245833"><ele></ele><time>2014-7-4T23:41:23Z</time></trkpt>
<trkpt lat="49.07178607" lon="-1.19248498"><ele></ele><time>2014-7-4T23:41:26Z</time></trkpt>
<trkpt lat="49.07169823" lon="-1.19262102"><ele></ele><time>2014-7-4T23:41:29Z</time></trkpt>
<trkpt lat="49.07159823" lon="-1.19277005"><ele></ele><time>2014-7-4T23:41:32Z</time></trkpt>
<trkpt lat="49.07147845" lon="-1.19287826"><ele></ele><time>2014-7-4T23:41:35Z</time></trkpt>
<trkpt lat="49.07133864" lon="-1.19302712"><ele></ele><time>2014-7-4T23:41:38Z</time></trkpt>
<trkpt lat="49.07121300" lon="-1.19316853"><ele></ele><time>2014-7-4T23:41:41Z</time></trkpt>
<trkpt lat="49.07109104" lon="-1.19330750"><ele></ele><time>2014-7-4T23:41:44Z</time></trkpt>
<trkpt lat="49.07095400" lon="-1.19347648"><ele></ele><time>2014-7-4T23:41:47Z</time></trkpt>
<trkpt lat="49.07077429" lon="-1.19373883"><ele></ele><time>2014-7-4T23:41:50Z</time></trkpt>
<trkpt lat="49.07068209" lon="-1.19387998"><ele></ele><time>2014-7-4T23:41:53Z</time></trkpt>
<trkpt lat="49.07047237" lon="-1.19420679"><ele></ele><time>2014-7-4T23:41:56Z</time></trkpt>
<trkpt lat="49.07035863" lon="-1.19439446"><ele></ele><time>2014-7-4T23:41:59Z</time></trkpt>
<trkpt lat="49.07029510" lon="-1.19454592"><ele></ele><time>2014-7-4T23:42:2Z</time></trkpt>
<trkpt lat="49.07011857" lon="-1.19473544"><ele></ele><time>2014-7-4T23:42:5Z</time></trkpt>
<trkpt lat="49.06983937" lon="-1.19495739"><ele></ele><time>2014-7-4T23:42:8Z</time></trkpt>
<trkpt lat="49.06973979" lon="-1.19505018"><ele></ele><time>2014-7-4T23:42:11Z</time></trkpt>
<trkpt lat="49.06959152" lon="-1.19529929"><ele></ele><time>2014-7-4T23:42:14Z</time></trkpt>
<trkpt lat="49.06954274" lon="-1.19543633"><ele></ele><time>2014-7-4T23:42:17Z</time></trkpt>
<trkpt lat="49.06929388" lon="-1.19596842"><ele></ele><time>2014-7-4T23:42:20Z</time></trkpt>
<trkpt lat="49.06920989" lon="-1.19619263"><ele></ele><time>2014-7-4T23:42:23Z</time></trkpt>
<trkpt lat="49.06908592" lon="-1.19656915"><ele></ele><time>2014-7-4T23:42:26Z</time></trkpt>
<trkpt lat="49.06902255" lon="-1.19678037"><ele></ele><time>2014-7-4T23:42:29Z</time></trkpt>
<trkpt lat="49.06900562" lon="-1.19683108"><ele></ele><time>2014-7-4T23:42:32Z</time></trkpt>
<trkpt lat="49.06887855" lon="-1.19724272"><ele></ele><time>2014-7-4T23:42:35Z</time></trkpt>
<trkpt lat="49.06876523" lon="-1.19762083"><ele></ele><time>2014-7-4T23:42:38Z</time></trkpt>
<trkpt lat="49.06861939" lon="-1.19794722"><ele></ele><time>2014-7-4T23:42:41Z</time></trkpt>
<trkpt lat="49.06839299" lon="-1.19840227"><ele></ele><time>2014-7-4T23:42:44Z</time></trkpt>
<trkpt lat="49.06824899" lon="-1.19886252"><ele></ele><time>2014-7-4T23:42:47Z</time></trkpt>
<trkpt lat="49.06811220" lon="-1.19931866"><ele></ele><time>2014-7-4T23:42:50Z</time></trkpt>
<trkpt lat="49.06808797" lon="-1.19937449"><ele></ele><time>2014-7-4T23:42:53Z</time></trkpt>
<trkpt lat="49.06800457" lon="-1.19954363"><ele></ele><time>2014-7-4T23:42:56Z</time></trkpt>
<trkpt lat="49.06780533" lon="-1.19982678"><ele></ele><time>2014-7-4T23:42:59Z</time></trkpt>
<trkpt lat="49.06775806" lon="-1.20014504"><ele></ele><time>2014-7-4T23:43:2Z</time></trkpt>
<trkpt lat="49.06779025" lon="-1.20020463"><ele></ele><time>2014-7-4T23:43:5Z</time></trkpt>
<trkpt lat="49.06787465" lon="-1.20036028"><ele></ele><time>2014-7-4T23:43:8Z</time></trkpt>
<trkpt lat="49.06791614" lon="-1.20052222"><ele></ele><time>2014-7-4T23:43:11Z</time></trkpt>
<trkpt lat="49.06791614" lon="-1.20074283"><ele></ele><time>2014-7-4T23:43:14Z</time></trkpt>
<trkpt lat="49.06792570" lon="-1.20114869"><ele></ele><time>2014-7-4T23:43:17Z</time></trkpt>
<trkpt lat="49.06798320" lon="-1.20134080"><ele></ele><time>2014-7-4T23:43:20Z</time></trkpt>
<trkpt lat="49.06807129" lon="-1.20172050"><ele></ele><time>2014-7-4T23:43:23Z</time></trkpt>
<trkpt lat="49.06814137" lon="-1.20198939"><ele></ele><time>2014-7-4T23:43:26Z</time></trkpt>
<trkpt lat="49.06822317" lon="-1.20234788"><ele></ele><time>2014-7-4T23:43:29Z</time></trkpt>
<trkpt lat="49.06831252" lon="-1.20275164"><ele></ele><time>2014-7-4T23:43:32Z</time></trkpt>
<trkpt lat="49.06838913" lon="-1.20311424"><ele></ele><time>2014-7-4T23:43:35Z</time></trkpt>
<trkpt lat="49.06846968" lon="-1.20346360"><ele></ele><time>2014-7-4T23:43:38Z</time></trkpt>
<trkpt lat="49.06855694" lon="-1.20380709"><ele></ele><time>2014-7-4T23:43:41Z</time></trkpt>
<trkpt lat="49.06868066" lon="-1.20421764"><ele></ele><time>2014-7-4T23:43:44Z</time></trkpt>
<trkpt lat="49.06880882" lon="-1.20464008"><ele></ele><time>2014-7-4T23:43:47Z</time></trkpt>
<trkpt lat="49.06890278" lon="-1.20507259"><ele></ele><time>2014-7-4T23:43:50Z</time></trkpt>
<trkpt lat="49.06892088" lon="-1.20545120"><ele></ele><time>2014-7-4T23:43:53Z</time></trkpt>
<trkpt lat="49.06890429" lon="-1.20583224"><ele></ele><time>2014-7-4T23:43:56Z</time></trkpt>
<trkpt lat="49.06888207" lon="-1.20621194"><ele></ele><time>2014-7-4T23:43:59Z</time></trkpt>
<trkpt lat="49.06886095" lon="-1.20664042"><ele></ele><time>2014-7-4T23:44:2Z</time></trkpt>
<trkpt lat="49.06885106" lon="-1.20703513"><ele></ele><time>2014-7-4T23:44:5Z</time></trkpt>
<trkpt lat="49.06886498" lon="-1.20760568"><ele></ele><time>2014-7-4T23:44:8Z</time></trkpt>
<trkpt lat="49.06886816" lon="-1.20809217"><ele></ele><time>2014-7-4T23:44:11Z</time></trkpt>
<trkpt lat="49.06887252" lon="-1.20865384"><ele></ele><time>2014-7-4T23:44:14Z</time></trkpt>
<trkpt lat="49.06887403" lon="-1.20912063"><ele></ele><time>2014-7-4T23:44:17Z</time></trkpt>
<trkpt lat="49.06892289" lon="-1.20947812"><ele></ele><time>2014-7-4T23:44:20Z</time></trkpt>
<trkpt lat="49.06907855" lon="-1.20972304"><ele></ele><time>2014-7-4T23:44:23Z</time></trkpt>
<trkpt lat="49.06930888" lon="-1.21002152"><ele></ele><time>2014-7-4T23:44:26Z</time></trkpt>
<trkpt lat="49.06946328" lon="-1.21020516"><ele></ele><time>2014-7-4T23:44:29Z</time></trkpt>
<trkpt lat="49.06962102" lon="-1.21040583"><ele></ele><time>2014-7-4T23:44:32Z</time></trkpt>
<trkpt lat="49.06980417" lon="-1.21065309"><ele></ele><time>2014-7-4T23:44:35Z</time></trkpt>
<trkpt lat="49.07002939" lon="-1.21103539"><ele></ele><time>2014-7-4T23:44:38Z</time></trkpt>
<trkpt lat="49.07022653" lon="-1.21137737"><ele></ele><time>2014-7-4T23:44:41Z</time></trkpt>
<trkpt lat="49.07046743" lon="-1.21183377"><ele></ele><time>2014-7-4T23:44:44Z</time></trkpt>
<trkpt lat="49.07072869" lon="-1.21224775"><ele></ele><time>2014-7-4T23:44:47Z</time></trkpt>
<trkpt lat="49.07090329" lon="-1.21255696"><ele></ele><time>2014-7-4T23:44:50Z</time></trkpt>
<trkpt lat="49.07108425" lon="-1.21282853"><ele></ele><time>2014-7-4T23:44:53Z</time></trkpt>
<trkpt lat="49.07131274" lon="-1.21310388"><ele></ele><time>2014-7-4T23:44:56Z</time></trkpt>
<trkpt lat="49.07160292" lon="-1.21332499"><ele></ele><time>2014-7-4T23:44:59Z</time></trkpt>
<trkpt lat="49.07187039" lon="-1.21365993"><ele></ele><time>2014-7-4T23:45:2Z</time></trkpt>
<trkpt lat="49.07219846" lon="-1.21420459"><ele></ele><time>2014-7-4T23:45:5Z</time></trkpt>
<trkpt lat="49.07232326" lon="-1.21438916"><ele></ele><time>2014-7-4T23:45:8Z</time></trkpt>
<trkpt lat="49.07261060" lon="-1.21453299"><ele></ele><time>2014-7-4T23:45:11Z</time></trkpt>
<trkpt lat="49.07287848" lon="-1.21450257"><ele></ele><time>2014-7-4T23:45:14Z</time></trkpt>
<trkpt lat="49.07298242" lon="-1.21452570"><ele></ele><time>2014-7-4T23:45:17Z</time></trkpt>
<trkpt lat="49.07299683" lon="-1.21445462"><ele></ele><time>2014-7-4T23:45:20Z</time></trkpt>
</trkseg></trk></gpx>